DAL41 KLAX-YSSY
Flight info
| Callsign | DAL41 |
|---|---|
| Flight time | N/A |
| Altitude | 34000 |
| Route | SUMMR2 FICKY R578 FAPIS/N0496F360 R578 FITES DCT 14N160W 09N165W 04N170W/N0495F380 01S175W 06S180W 10S175E/N0489F400 16S170E 18S168E 21S165E 23S163E 26S160E DCT IFFEY DCT RIKNI N774 MARLN MARLN5 |
| Aircraft | A359/H-SDE2E3GHIJ1J3J4J5LM1ORWXY/LB1D1 |
Departure
| Time | 2026-05-06 02:28 |
|---|---|
| Airport | Los Angeles International Airport (KLAX) |
Arrival
| Time | N/A |
|---|---|
| Airport | Sydney Kingsford Smith International Airport (YSSY) |
| Time | Latitude | Longitude | Altitude | Speed | Heading |
|---|---|---|---|---|---|
| 2026-05-06 00:51 | 33.94540 | -118.41009 | 99 ft | 0 kts | 263° |
| 2026-05-06 02:16 | 33.94541 | -118.41006 | 99 ft | 3 kts | 263° |
| 2026-05-06 02:16 | 33.94544 | -118.40976 | 99 ft | 2 kts | 263° |
| 2026-05-06 02:17 | 33.94545 | -118.40949 | 99 ft | 4 kts | 283° |
| 2026-05-06 02:17 | 33.94533 | -118.40922 | 97 ft | 4 kts | 321° |
| 2026-05-06 02:17 | 33.94511 | -118.40906 | 100 ft | 3 kts | 337° |
| 2026-05-06 02:17 | 33.94520 | -118.40913 | 99 ft | 4 kts | 325° |
| 2026-05-06 02:18 | 33.94532 | -118.40915 | 100 ft | 0 kts | 354° |
| 2026-05-06 02:22 | 33.94535 | -118.40916 | 100 ft | 2 kts | 354° |
| 2026-05-06 02:23 | 33.94575 | -118.40913 | 102 ft | 9 kts | 19° |
| 2026-05-06 02:23 | 33.94635 | -118.40902 | 102 ft | 9 kts | 356° |
| 2026-05-06 02:23 | 33.94696 | -118.40908 | 101 ft | 9 kts | 355° |
| 2026-05-06 02:23 | 33.94755 | -118.40896 | 101 ft | 8 kts | 24° |
| 2026-05-06 02:24 | 33.94808 | -118.40874 | 102 ft | 8 kts | 28° |
| 2026-05-06 02:24 | 33.94835 | -118.40826 | 103 ft | 7 kts | 68° |
| 2026-05-06 02:24 | 33.94845 | -118.40764 | 103 ft | 10 kts | 82° |
| 2026-05-06 02:24 | 33.94856 | -118.40660 | 102 ft | 15 kts | 83° |
| 2026-05-06 02:25 | 33.94866 | -118.40538 | 101 ft | 15 kts | 80° |
| 2026-05-06 02:25 | 33.94881 | -118.40417 | 100 ft | 14 kts | 83° |
| 2026-05-06 02:25 | 33.94893 | -118.40309 | 103 ft | 13 kts | 83° |
| 2026-05-06 02:25 | 33.94903 | -118.40202 | 103 ft | 13 kts | 83° |
| 2026-05-06 02:26 | 33.94913 | -118.40105 | 101 ft | 9 kts | 83° |
| 2026-05-06 02:26 | 33.94921 | -118.40025 | 100 ft | 10 kts | 81° |
| 2026-05-06 02:26 | 33.94936 | -118.39951 | 101 ft | 5 kts | 64° |
| 2026-05-06 02:26 | 33.94959 | -118.39920 | 99 ft | 5 kts | 32° |
| 2026-05-06 02:27 | 33.94997 | -118.39912 | 99 ft | 7 kts | 356° |
| 2026-05-06 02:27 | 33.95035 | -118.39945 | 103 ft | 6 kts | 295° |
| 2026-05-06 02:27 | 33.95036 | -118.40011 | 103 ft | 13 kts | 265° |
| 2026-05-06 02:27 | 33.95000 | -118.40362 | 104 ft | 77 kts | 262° |
| 2026-05-06 02:28 | 33.94906 | -118.41279 | 104 ft | 142 kts | 262° |
| 2026-05-06 02:28 | 33.94768 | -118.42652 | 356 ft | 173 kts | 263° |
| 2026-05-06 02:28 | 33.94629 | -118.44058 | 1200 ft | 166 kts | 263° |
| 2026-05-06 02:28 | 33.94489 | -118.45431 | 1623 ft | 167 kts | 262° |
| 2026-05-06 02:29 | 33.94349 | -118.46832 | 1910 ft | 169 kts | 263° |
| 2026-05-06 02:29 | 33.94271 | -118.48241 | 2248 ft | 168 kts | 267° |
| 2026-05-06 02:29 | 33.94242 | -118.49655 | 2554 ft | 170 kts | 267° |
| 2026-05-06 02:29 | 33.94213 | -118.51076 | 2866 ft | 169 kts | 267° |
| 2026-05-06 02:30 | 33.94129 | -118.52475 | 3235 ft | 167 kts | 263° |
| 2026-05-06 02:30 | 33.94008 | -118.53907 | 3404 ft | 178 kts | 263° |
| 2026-05-06 02:30 | 33.93878 | -118.55441 | 3568 ft | 190 kts | 263° |
| 2026-05-06 02:30 | 33.93744 | -118.57077 | 3722 ft | 204 kts | 264° |
| 2026-05-06 02:31 | 33.93603 | -118.58843 | 3875 ft | 219 kts | 264° |
| 2026-05-06 02:31 | 33.93455 | -118.60721 | 4078 ft | 232 kts | 264° |
| 2026-05-06 02:31 | 33.93299 | -118.62714 | 4285 ft | 246 kts | 264° |
| 2026-05-06 02:31 | 33.93134 | -118.64800 | 4630 ft | 253 kts | 264° |
| 2026-05-06 02:32 | 33.92972 | -118.66931 | 5051 ft | 258 kts | 265° |
| 2026-05-06 02:32 | 33.92804 | -118.69093 | 5529 ft | 261 kts | 265° |
| 2026-05-06 02:32 | 33.92633 | -118.71280 | 5997 ft | 263 kts | 265° |
| 2026-05-06 02:32 | 33.92463 | -118.73488 | 6457 ft | 266 kts | 265° |
| 2026-05-06 02:33 | 33.92288 | -118.75718 | 6951 ft | 269 kts | 265° |
| 2026-05-06 02:33 | 33.92171 | -118.77204 | 7257 ft | 271 kts | 265° |
| 2026-05-06 02:34 | 33.91738 | -118.84889 | 8815 ft | 280 kts | 273° |
| 2026-05-06 02:34 | 33.91802 | -118.87206 | 9297 ft | 282 kts | 274° |
| 2026-05-06 02:34 | 33.91878 | -118.89570 | 9764 ft | 283 kts | 274° |
| 2026-05-06 02:34 | 33.91952 | -118.91952 | 10196 ft | 288 kts | 274° |
| 2026-05-06 02:35 | 33.92027 | -118.94357 | 10415 ft | 299 kts | 274° |
| 2026-05-06 02:35 | 33.92104 | -118.96913 | 10633 ft | 311 kts | 274° |
| 2026-05-06 02:35 | 33.92178 | -118.99560 | 10859 ft | 322 kts | 273° |
| 2026-05-06 02:35 | 33.91945 | -119.02287 | 11020 ft | 337 kts | 256° |
| 2026-05-06 02:36 | 33.91105 | -119.04974 | 11232 ft | 349 kts | 249° |
| 2026-05-06 02:36 | 33.90094 | -119.07721 | 11437 ft | 359 kts | 248° |
| 2026-05-06 02:36 | 33.89075 | -119.10468 | 11612 ft | 369 kts | 248° |
| 2026-05-06 02:36 | 33.88007 | -119.13368 | 11828 ft | 378 kts | 249° |
| 2026-05-06 02:37 | 33.86941 | -119.16273 | 12172 ft | 382 kts | 249° |
| 2026-05-06 02:37 | 33.85880 | -119.19172 | 12533 ft | 385 kts | 249° |
| 2026-05-06 02:37 | 33.84783 | -119.22167 | 12913 ft | 387 kts | 249° |
| 2026-05-06 02:37 | 33.83712 | -119.25100 | 13274 ft | 390 kts | 249° |
| 2026-05-06 02:38 | 33.82620 | -119.28093 | 13652 ft | 392 kts | 249° |
| 2026-05-06 02:38 | 33.81515 | -119.31098 | 14031 ft | 394 kts | 248° |
| 2026-05-06 02:38 | 33.80180 | -119.33997 | 14378 ft | 400 kts | 238° |
| 2026-05-06 02:38 | 33.78331 | -119.36529 | 14707 ft | 407 kts | 224° |
| 2026-05-06 02:39 | 33.76133 | -119.38706 | 15070 ft | 411 kts | 220° |
| 2026-05-06 02:39 | 33.73865 | -119.40815 | 15397 ft | 414 kts | 220° |
| 2026-05-06 02:39 | 33.71575 | -119.42939 | 15764 ft | 417 kts | 220° |
| 2026-05-06 02:39 | 33.69281 | -119.45075 | 16126 ft | 418 kts | 221° |
| 2026-05-06 02:40 | 33.66974 | -119.47228 | 16471 ft | 421 kts | 221° |
| 2026-05-06 02:40 | 33.64657 | -119.49393 | 16807 ft | 423 kts | 221° |
| 2026-05-06 02:40 | 33.62327 | -119.51571 | 17134 ft | 426 kts | 221° |
| 2026-05-06 02:40 | 33.59985 | -119.53760 | 17465 ft | 428 kts | 221° |
| 2026-05-06 02:41 | 33.57631 | -119.55959 | 17787 ft | 430 kts | 221° |
| 2026-05-06 02:41 | 33.55266 | -119.58169 | 18097 ft | 432 kts | 221° |
| 2026-05-06 02:41 | 33.52885 | -119.60390 | 18406 ft | 435 kts | 221° |
| 2026-05-06 02:41 | 33.50494 | -119.62619 | 18739 ft | 436 kts | 221° |
| 2026-05-06 02:42 | 33.48091 | -119.64858 | 19042 ft | 439 kts | 221° |
| 2026-05-06 02:42 | 33.45677 | -119.67107 | 19361 ft | 441 kts | 221° |
| 2026-05-06 02:42 | 33.43251 | -119.69364 | 19646 ft | 443 kts | 221° |
| 2026-05-06 02:42 | 33.40811 | -119.71634 | 19953 ft | 445 kts | 221° |
| 2026-05-06 02:43 | 33.38361 | -119.73910 | 20263 ft | 447 kts | 221° |
| 2026-05-06 02:43 | 33.35891 | -119.76202 | 20542 ft | 449 kts | 221° |
| 2026-05-06 02:43 | 33.33424 | -119.78491 | 20849 ft | 451 kts | 221° |
| 2026-05-06 02:43 | 33.30943 | -119.80790 | 21149 ft | 452 kts | 221° |
| 2026-05-06 02:44 | 33.28449 | -119.83100 | 21463 ft | 454 kts | 221° |
| 2026-05-06 02:44 | 33.25953 | -119.85411 | 21756 ft | 455 kts | 221° |
| 2026-05-06 02:44 | 33.23443 | -119.87733 | 22049 ft | 457 kts | 221° |
| 2026-05-06 02:44 | 33.20925 | -119.90061 | 22335 ft | 459 kts | 221° |
| 2026-05-06 02:45 | 33.18397 | -119.92395 | 22665 ft | 460 kts | 221° |
| 2026-05-06 02:45 | 33.15867 | -119.94729 | 22977 ft | 460 kts | 221° |
| 2026-05-06 02:45 | 33.13330 | -119.97067 | 23248 ft | 462 kts | 222° |
| 2026-05-06 02:45 | 33.10781 | -119.99417 | 23534 ft | 463 kts | 221° |
| 2026-05-06 02:46 | 33.08232 | -120.01765 | 23828 ft | 464 kts | 222° |
| 2026-05-06 02:46 | 33.05665 | -120.04129 | 23982 ft | 468 kts | 222° |
| 2026-05-06 02:46 | 33.03079 | -120.06508 | 24250 ft | 469 kts | 222° |
| 2026-05-06 02:46 | 33.00526 | -120.08854 | 24525 ft | 471 kts | 222° |
| 2026-05-06 02:47 | 32.97930 | -120.11236 | 24811 ft | 471 kts | 222° |
| 2026-05-06 02:47 | 32.95329 | -120.13621 | 25074 ft | 472 kts | 222° |
| 2026-05-06 02:47 | 32.92723 | -120.16009 | 25337 ft | 473 kts | 222° |
| 2026-05-06 02:47 | 32.90112 | -120.18402 | 25597 ft | 474 kts | 222° |
| 2026-05-06 02:48 | 32.87496 | -120.20795 | 25889 ft | 475 kts | 221° |
| 2026-05-06 02:48 | 32.84872 | -120.23196 | 26142 ft | 476 kts | 221° |
| 2026-05-06 02:48 | 32.82244 | -120.25597 | 26376 ft | 478 kts | 221° |
| 2026-05-06 02:48 | 32.79605 | -120.28009 | 26632 ft | 479 kts | 221° |
| 2026-05-06 02:49 | 32.76955 | -120.30426 | 26894 ft | 480 kts | 221° |
| 2026-05-06 02:49 | 32.74304 | -120.32843 | 27134 ft | 482 kts | 221° |
| 2026-05-06 02:49 | 32.71641 | -120.35269 | 27371 ft | 483 kts | 221° |
| 2026-05-06 02:49 | 32.68971 | -120.37700 | 27620 ft | 484 kts | 221° |
| 2026-05-06 02:50 | 32.66297 | -120.40133 | 27848 ft | 485 kts | 221° |
| 2026-05-06 02:50 | 32.63613 | -120.42574 | 28081 ft | 487 kts | 221° |
| 2026-05-06 02:50 | 32.60922 | -120.45017 | 28307 ft | 488 kts | 221° |
| 2026-05-06 02:50 | 32.58223 | -120.47472 | 28516 ft | 489 kts | 221° |
| 2026-05-06 02:51 | 32.55520 | -120.49928 | 28719 ft | 491 kts | 221° |
| 2026-05-06 02:51 | 32.52805 | -120.52388 | 28896 ft | 492 kts | 221° |
| 2026-05-06 02:51 | 32.50081 | -120.54855 | 29087 ft | 493 kts | 221° |
| 2026-05-06 02:51 | 32.47355 | -120.57323 | 29269 ft | 494 kts | 221° |
| 2026-05-06 02:52 | 32.44614 | -120.59802 | 29437 ft | 496 kts | 221° |
| 2026-05-06 02:52 | 32.41870 | -120.62279 | 29604 ft | 497 kts | 221° |
| 2026-05-06 02:52 | 32.39118 | -120.64766 | 29752 ft | 498 kts | 221° |
| 2026-05-06 02:52 | 32.36360 | -120.67256 | 29907 ft | 500 kts | 221° |
| 2026-05-06 02:53 | 32.33593 | -120.69753 | 30060 ft | 501 kts | 221° |
| 2026-05-06 02:53 | 32.30824 | -120.72250 | 30290 ft | 500 kts | 221° |
| 2026-05-06 02:53 | 32.28064 | -120.74735 | 30565 ft | 498 kts | 221° |
| 2026-05-06 02:53 | 32.25311 | -120.77210 | 30843 ft | 496 kts | 221° |
| 2026-05-06 02:54 | 32.22570 | -120.79675 | 31105 ft | 495 kts | 221° |
| 2026-05-06 02:54 | 32.19837 | -120.82130 | 31329 ft | 493 kts | 221° |
| 2026-05-06 02:54 | 32.17105 | -120.84584 | 31552 ft | 492 kts | 221° |
| 2026-05-06 02:54 | 32.14381 | -120.87028 | 31750 ft | 492 kts | 221° |
| 2026-05-06 02:55 | 32.11658 | -120.89469 | 31953 ft | 491 kts | 221° |
| 2026-05-06 02:55 | 32.08939 | -120.91905 | 32147 ft | 490 kts | 221° |
| 2026-05-06 02:55 | 32.06226 | -120.94335 | 32331 ft | 490 kts | 221° |
| 2026-05-06 02:55 | 32.03515 | -120.96760 | 32531 ft | 489 kts | 221° |
| 2026-05-06 02:56 | 32.00806 | -120.99180 | 32698 ft | 488 kts | 221° |
| 2026-05-06 02:56 | 31.98103 | -121.01594 | 32868 ft | 487 kts | 221° |
| 2026-05-06 02:56 | 31.95415 | -121.03990 | 33247 ft | 480 kts | 221° |
| 2026-05-06 02:56 | 31.92781 | -121.06333 | 33802 ft | 471 kts | 222° |
| 2026-05-06 02:57 | 31.90181 | -121.08650 | 34019 ft | 469 kts | 222° |
| 2026-05-06 02:57 | 31.84960 | -121.13304 | 34056 ft | 473 kts | 222° |
| 2026-05-06 02:58 | 31.79709 | -121.17971 | 34053 ft | 473 kts | 222° |
| 2026-05-06 02:58 | 31.74494 | -121.22601 | 34053 ft | 473 kts | 222° |
| 2026-05-06 02:59 | 31.69234 | -121.27264 | 34055 ft | 474 kts | 222° |
| 2026-05-06 02:59 | 31.63973 | -121.31919 | 34054 ft | 474 kts | 221° |
| 2026-05-06 03:00 | 31.58973 | -121.36892 | 34054 ft | 467 kts | 232° |
| 2026-05-06 03:00 | 31.55444 | -121.43145 | 34055 ft | 457 kts | 249° |
| 2026-05-06 03:01 | 31.53592 | -121.50217 | 34054 ft | 454 kts | 259° |
| 2026-05-06 03:01 | 31.52231 | -121.57449 | 34061 ft | 455 kts | 260° |
| 2026-05-06 03:02 | 31.50907 | -121.64711 | 34063 ft | 456 kts | 260° |
| 2026-05-06 03:02 | 31.49546 | -121.71977 | 34064 ft | 457 kts | 260° |
| 2026-05-06 03:03 | 31.48160 | -121.79243 | 34064 ft | 458 kts | 259° |
| 2026-05-06 03:03 | 31.46757 | -121.86541 | 34063 ft | 458 kts | 259° |
| 2026-05-06 03:04 | 31.45353 | -121.93825 | 34063 ft | 458 kts | 259° |
| 2026-05-06 03:04 | 31.43947 | -122.01104 | 34063 ft | 458 kts | 259° |
| 2026-05-06 03:05 | 31.42535 | -122.08395 | 34063 ft | 460 kts | 259° |
| 2026-05-06 03:05 | 31.41354 | -122.14482 | 34064 ft | 461 kts | 259° |
| 2026-05-06 03:06 | 31.39927 | -122.21796 | 34064 ft | 460 kts | 259° |
| 2026-05-06 03:06 | 31.38500 | -122.29096 | 34064 ft | 460 kts | 259° |
| 2026-05-06 03:07 | 31.37069 | -122.36389 | 34063 ft | 459 kts | 259° |
| 2026-05-06 03:07 | 31.35637 | -122.43662 | 34065 ft | 459 kts | 259° |
| 2026-05-06 03:08 | 31.34205 | -122.50928 | 34064 ft | 458 kts | 259° |
| 2026-05-06 03:08 | 31.32771 | -122.58178 | 34057 ft | 457 kts | 259° |
| 2026-05-06 03:09 | 31.31333 | -122.65422 | 34055 ft | 457 kts | 259° |
| 2026-05-06 03:09 | 31.29891 | -122.72647 | 34055 ft | 456 kts | 259° |
| 2026-05-06 03:10 | 31.28449 | -122.79872 | 34056 ft | 456 kts | 259° |
| 2026-05-06 03:10 | 31.27009 | -122.87045 | 34054 ft | 456 kts | 258° |
| 2026-05-06 03:11 | 31.25556 | -122.94267 | 34054 ft | 456 kts | 258° |
| 2026-05-06 03:11 | 31.24102 | -123.01474 | 34053 ft | 456 kts | 258° |
| 2026-05-06 03:12 | 31.22644 | -123.08690 | 34055 ft | 457 kts | 258° |
| 2026-05-06 03:12 | 31.21179 | -123.15909 | 34054 ft | 457 kts | 258° |
| 2026-05-06 03:13 | 31.19707 | -123.23127 | 34055 ft | 457 kts | 258° |
| 2026-05-06 03:13 | 31.18231 | -123.30355 | 34056 ft | 458 kts | 258° |
| 2026-05-06 03:14 | 31.16752 | -123.37585 | 34053 ft | 458 kts | 258° |
| 2026-05-06 03:14 | 31.15265 | -123.44816 | 34054 ft | 458 kts | 258° |
| 2026-05-06 03:15 | 31.13773 | -123.52055 | 34054 ft | 459 kts | 258° |
| 2026-05-06 03:15 | 31.12261 | -123.59285 | 34055 ft | 459 kts | 257° |
| 2026-05-06 03:16 | 31.10681 | -123.66501 | 34056 ft | 459 kts | 257° |
| 2026-05-06 03:16 | 31.09103 | -123.73660 | 34056 ft | 459 kts | 257° |
| 2026-05-06 03:17 | 31.07510 | -123.80907 | 34056 ft | 464 kts | 258° |
| 2026-05-06 03:17 | 31.05900 | -123.88249 | 34056 ft | 470 kts | 258° |
| 2026-05-06 03:18 | 31.04266 | -123.95687 | 34055 ft | 474 kts | 258° |
| 2026-05-06 03:18 | 31.02621 | -124.03130 | 34084 ft | 474 kts | 258° |
| 2026-05-06 03:19 | 31.00969 | -124.10583 | 34085 ft | 476 kts | 258° |
| 2026-05-06 03:19 | 30.99308 | -124.18064 | 34078 ft | 477 kts | 258° |
| 2026-05-06 03:20 | 30.96811 | -124.29269 | 34079 ft | 476 kts | 258° |
| 2026-05-06 03:20 | 30.95144 | -124.36717 | 34074 ft | 475 kts | 258° |
| 2026-05-06 03:21 | 30.93473 | -124.44162 | 34074 ft | 475 kts | 258° |
| 2026-05-06 03:21 | 30.91846 | -124.51390 | 34072 ft | 475 kts | 258° |
| 2026-05-06 03:22 | 30.90170 | -124.58818 | 34074 ft | 474 kts | 258° |
| 2026-05-06 03:22 | 30.88526 | -124.66073 | 34071 ft | 474 kts | 258° |
| 2026-05-06 03:23 | 30.86840 | -124.73500 | 34071 ft | 475 kts | 258° |
| 2026-05-06 03:23 | 30.85198 | -124.80714 | 34071 ft | 475 kts | 258° |
| 2026-05-06 03:24 | 30.83502 | -124.88137 | 34070 ft | 475 kts | 258° |
| 2026-05-06 03:24 | 30.81802 | -124.95569 | 34070 ft | 475 kts | 258° |
| 2026-05-06 03:25 | 30.80096 | -125.02997 | 34071 ft | 475 kts | 258° |
| 2026-05-06 03:25 | 30.78388 | -125.10422 | 34072 ft | 475 kts | 258° |
| 2026-05-06 03:26 | 30.76677 | -125.17842 | 34071 ft | 475 kts | 258° |
| 2026-05-06 03:26 | 30.75017 | -125.25006 | 34073 ft | 476 kts | 258° |
| 2026-05-06 03:27 | 30.73293 | -125.32428 | 34073 ft | 476 kts | 258° |
| 2026-05-06 03:27 | 30.71564 | -125.39851 | 34071 ft | 475 kts | 258° |
| 2026-05-06 03:28 | 30.69837 | -125.47255 | 34076 ft | 475 kts | 258° |
| 2026-05-06 03:28 | 30.68115 | -125.54618 | 34075 ft | 475 kts | 258° |
| 2026-05-06 03:29 | 30.66376 | -125.62019 | 34075 ft | 475 kts | 258° |
| 2026-05-06 03:29 | 30.64633 | -125.69418 | 34072 ft | 475 kts | 258° |
| 2026-05-06 03:30 | 30.62889 | -125.76808 | 34073 ft | 475 kts | 258° |
| 2026-05-06 03:30 | 30.61140 | -125.84194 | 34070 ft | 474 kts | 258° |
| 2026-05-06 03:31 | 30.59390 | -125.91567 | 34073 ft | 474 kts | 258° |
| 2026-05-06 03:31 | 30.57635 | -125.98938 | 34067 ft | 473 kts | 258° |
| 2026-05-06 03:32 | 30.55875 | -126.06298 | 34063 ft | 474 kts | 258° |
| 2026-05-06 03:32 | 30.54185 | -126.13369 | 34063 ft | 474 kts | 258° |
| 2026-05-06 03:33 | 30.52424 | -126.20737 | 34064 ft | 474 kts | 258° |
| 2026-05-06 03:33 | 30.50708 | -126.27872 | 34063 ft | 473 kts | 258° |
| 2026-05-06 03:34 | 30.48931 | -126.35226 | 34065 ft | 473 kts | 258° |
| 2026-05-06 03:34 | 30.47153 | -126.42571 | 34063 ft | 474 kts | 258° |
| 2026-05-06 03:35 | 30.45374 | -126.49917 | 34064 ft | 474 kts | 258° |
| 2026-05-06 03:35 | 30.43588 | -126.57264 | 34064 ft | 474 kts | 258° |
| 2026-05-06 03:36 | 30.41794 | -126.64613 | 34062 ft | 474 kts | 258° |
| 2026-05-06 03:36 | 30.40010 | -126.71908 | 34064 ft | 474 kts | 258° |
| 2026-05-06 03:37 | 30.38209 | -126.79250 | 34064 ft | 474 kts | 258° |
| 2026-05-06 03:37 | 30.36403 | -126.86597 | 34064 ft | 474 kts | 258° |
| 2026-05-06 03:38 | 30.34597 | -126.93935 | 34063 ft | 474 kts | 258° |
| 2026-05-06 03:38 | 30.32859 | -127.00962 | 34063 ft | 474 kts | 258° |
| 2026-05-06 03:39 | 30.31043 | -127.08292 | 34063 ft | 474 kts | 258° |
| 2026-05-06 03:39 | 30.29225 | -127.15608 | 34063 ft | 473 kts | 258° |
| 2026-05-06 03:40 | 30.27406 | -127.22917 | 34063 ft | 473 kts | 258° |
| 2026-05-06 03:40 | 30.25597 | -127.30168 | 34063 ft | 472 kts | 258° |
| 2026-05-06 03:41 | 30.23774 | -127.37453 | 34063 ft | 471 kts | 258° |
| 2026-05-06 03:41 | 30.21949 | -127.44728 | 34064 ft | 470 kts | 258° |
| 2026-05-06 03:42 | 30.20125 | -127.51983 | 34063 ft | 469 kts | 259° |
| 2026-05-06 03:42 | 30.18299 | -127.59218 | 34063 ft | 469 kts | 259° |
| 2026-05-06 03:43 | 30.16472 | -127.66443 | 34063 ft | 468 kts | 259° |
| 2026-05-06 03:43 | 30.14644 | -127.73655 | 34063 ft | 467 kts | 259° |
| 2026-05-06 03:44 | 30.12816 | -127.80851 | 34063 ft | 466 kts | 259° |
| 2026-05-06 03:44 | 30.10987 | -127.88030 | 34063 ft | 466 kts | 259° |
| 2026-05-06 03:45 | 30.09153 | -127.95211 | 34063 ft | 466 kts | 259° |
| 2026-05-06 03:45 | 30.07316 | -128.02381 | 34063 ft | 466 kts | 259° |
| 2026-05-06 03:46 | 30.05489 | -128.09497 | 34063 ft | 466 kts | 259° |
| 2026-05-06 03:46 | 30.03647 | -128.16663 | 34063 ft | 466 kts | 259° |
| 2026-05-06 03:47 | 30.01799 | -128.23827 | 34072 ft | 466 kts | 259° |
| 2026-05-06 03:47 | 29.99947 | -128.30989 | 34071 ft | 466 kts | 259° |
| 2026-05-06 03:48 | 29.98095 | -128.38135 | 34070 ft | 465 kts | 259° |
| 2026-05-06 03:48 | 29.96240 | -128.45274 | 34074 ft | 465 kts | 259° |
| 2026-05-06 03:49 | 29.94385 | -128.52403 | 34075 ft | 464 kts | 259° |
| 2026-05-06 03:49 | 29.92525 | -128.59520 | 34074 ft | 463 kts | 258° |
| 2026-05-06 03:50 | 29.90664 | -128.66623 | 34070 ft | 462 kts | 259° |
| 2026-05-06 03:50 | 29.88803 | -128.73715 | 34074 ft | 462 kts | 259° |
| 2026-05-06 03:51 | 29.86943 | -128.80788 | 34071 ft | 461 kts | 258° |
| 2026-05-06 03:51 | 29.85084 | -128.87846 | 34072 ft | 460 kts | 259° |
| 2026-05-06 03:52 | 29.83221 | -128.94897 | 34071 ft | 459 kts | 259° |
| 2026-05-06 03:52 | 29.81370 | -129.01887 | 34072 ft | 459 kts | 259° |
| 2026-05-06 03:53 | 29.79502 | -129.08914 | 34072 ft | 459 kts | 259° |
| 2026-05-06 03:53 | 29.77630 | -129.15939 | 34074 ft | 459 kts | 259° |
| 2026-05-06 03:54 | 29.75760 | -129.22949 | 34071 ft | 458 kts | 259° |
| 2026-05-06 03:54 | 29.73888 | -129.29952 | 34072 ft | 457 kts | 259° |
| 2026-05-06 03:55 | 29.72015 | -129.36943 | 34074 ft | 457 kts | 259° |
| 2026-05-06 03:55 | 29.70136 | -129.43931 | 34073 ft | 458 kts | 259° |
| 2026-05-06 03:56 | 29.68253 | -129.50924 | 34072 ft | 457 kts | 259° |
| 2026-05-06 03:56 | 29.66687 | -129.56722 | 34074 ft | 457 kts | 259° |
| 2026-05-06 03:57 | 29.64801 | -129.63700 | 34074 ft | 457 kts | 259° |
| 2026-05-06 03:57 | 29.62912 | -129.70672 | 34071 ft | 457 kts | 259° |
| 2026-05-06 03:58 | 29.61020 | -129.77644 | 34074 ft | 457 kts | 259° |
| 2026-05-06 03:58 | 29.59122 | -129.84618 | 34074 ft | 457 kts | 259° |
| 2026-05-06 03:59 | 29.57219 | -129.91586 | 34074 ft | 457 kts | 259° |
| 2026-05-06 03:59 | 29.55312 | -129.98552 | 34072 ft | 457 kts | 259° |
| 2026-05-06 04:00 | 29.53403 | -130.05524 | 34071 ft | 458 kts | 259° |
| 2026-05-06 04:00 | 29.51487 | -130.12498 | 34073 ft | 458 kts | 259° |
| 2026-05-06 04:01 | 29.49563 | -130.19476 | 34074 ft | 458 kts | 259° |
| 2026-05-06 04:01 | 29.47635 | -130.26454 | 34084 ft | 458 kts | 259° |
| 2026-05-06 04:02 | 29.45707 | -130.33422 | 34095 ft | 458 kts | 258° |
| 2026-05-06 04:02 | 29.43773 | -130.40395 | 34092 ft | 458 kts | 258° |
| 2026-05-06 04:03 | 29.41835 | -130.47367 | 34093 ft | 459 kts | 258° |
| 2026-05-06 04:03 | 29.39905 | -130.54297 | 34090 ft | 459 kts | 258° |
| 2026-05-06 04:04 | 29.37957 | -130.61275 | 34091 ft | 460 kts | 258° |
| 2026-05-06 04:04 | 29.36007 | -130.68253 | 34093 ft | 460 kts | 258° |
| 2026-05-06 04:05 | 29.34045 | -130.75241 | 34096 ft | 460 kts | 258° |
| 2026-05-06 04:05 | 29.32081 | -130.82224 | 34088 ft | 460 kts | 258° |
| 2026-05-06 04:06 | 29.30114 | -130.89208 | 34096 ft | 461 kts | 257° |
| 2026-05-06 04:06 | 29.28140 | -130.96201 | 34090 ft | 461 kts | 257° |
| 2026-05-06 04:07 | 29.26159 | -131.03199 | 34088 ft | 462 kts | 257° |
| 2026-05-06 04:07 | 29.24174 | -131.10201 | 34096 ft | 462 kts | 257° |
| 2026-05-06 04:08 | 29.22186 | -131.17195 | 34092 ft | 462 kts | 257° |
| 2026-05-06 04:08 | 29.20188 | -131.24195 | 34091 ft | 463 kts | 257° |
| 2026-05-06 04:09 | 29.18189 | -131.31201 | 34089 ft | 463 kts | 257° |
| 2026-05-06 04:09 | 29.16183 | -131.38207 | 34093 ft | 463 kts | 257° |
| 2026-05-06 04:10 | 29.14174 | -131.45217 | 34090 ft | 464 kts | 257° |
| 2026-05-06 04:10 | 29.12160 | -131.52227 | 34094 ft | 464 kts | 257° |
| 2026-05-06 04:11 | 29.10139 | -131.59241 | 34093 ft | 465 kts | 257° |
| 2026-05-06 04:11 | 29.08113 | -131.66251 | 34094 ft | 464 kts | 256° |
| 2026-05-06 04:12 | 29.06085 | -131.73256 | 34093 ft | 464 kts | 256° |
| 2026-05-06 04:12 | 29.04053 | -131.80263 | 34094 ft | 465 kts | 256° |
| 2026-05-06 04:13 | 29.02017 | -131.87267 | 34088 ft | 465 kts | 256° |
| 2026-05-06 04:13 | 28.99977 | -131.94273 | 34092 ft | 465 kts | 256° |
| 2026-05-06 04:14 | 28.97933 | -132.01269 | 34092 ft | 464 kts | 256° |
| 2026-05-06 04:14 | 28.95888 | -132.08261 | 34093 ft | 465 kts | 256° |
| 2026-05-06 04:15 | 28.93831 | -132.15280 | 34093 ft | 466 kts | 256° |
| 2026-05-06 04:15 | 28.91769 | -132.22302 | 34089 ft | 467 kts | 256° |
| 2026-05-06 04:16 | 28.89699 | -132.29329 | 34088 ft | 467 kts | 256° |
| 2026-05-06 04:16 | 28.87641 | -132.36297 | 34093 ft | 466 kts | 255° |
| 2026-05-06 04:17 | 28.85554 | -132.43355 | 34092 ft | 466 kts | 255° |
| 2026-05-06 04:17 | 28.83490 | -132.50319 | 34087 ft | 466 kts | 255° |
| 2026-05-06 04:18 | 28.81409 | -132.57324 | 34093 ft | 467 kts | 255° |
| 2026-05-06 04:18 | 28.79322 | -132.64336 | 34092 ft | 467 kts | 255° |
| 2026-05-06 04:19 | 28.77232 | -132.71345 | 34093 ft | 467 kts | 255° |
| 2026-05-06 04:19 | 28.75137 | -132.78352 | 34089 ft | 467 kts | 255° |
| 2026-05-06 04:20 | 28.73039 | -132.85360 | 34089 ft | 467 kts | 255° |
| 2026-05-06 04:20 | 28.70937 | -132.92366 | 34096 ft | 468 kts | 255° |
| 2026-05-06 04:21 | 28.68830 | -132.99370 | 34089 ft | 468 kts | 255° |
| 2026-05-06 04:21 | 28.66714 | -133.06379 | 34091 ft | 468 kts | 255° |
| 2026-05-06 04:22 | 28.64596 | -133.13390 | 34091 ft | 468 kts | 255° |
| 2026-05-06 04:23 | 28.61415 | -133.23895 | 34092 ft | 468 kts | 255° |
| 2026-05-06 04:23 | 28.59291 | -133.30896 | 34095 ft | 468 kts | 255° |
| 2026-05-06 04:24 | 28.57157 | -133.37907 | 34080 ft | 469 kts | 255° |
| 2026-05-06 04:24 | 28.55020 | -133.44917 | 34080 ft | 469 kts | 254° |
| 2026-05-06 04:25 | 28.52876 | -133.51933 | 34085 ft | 470 kts | 254° |
| 2026-05-06 04:25 | 28.50727 | -133.58946 | 34082 ft | 470 kts | 254° |
| 2026-05-06 04:26 | 28.48575 | -133.65960 | 34085 ft | 470 kts | 254° |
| 2026-05-06 04:26 | 28.46433 | -133.72926 | 34081 ft | 470 kts | 254° |
| 2026-05-06 04:27 | 28.44273 | -133.79935 | 34085 ft | 470 kts | 254° |
| 2026-05-06 04:27 | 28.42096 | -133.86991 | 34085 ft | 471 kts | 254° |
| 2026-05-06 04:28 | 28.39941 | -133.93959 | 34083 ft | 470 kts | 254° |
| 2026-05-06 04:28 | 28.37768 | -134.00963 | 34083 ft | 470 kts | 254° |
| 2026-05-06 04:29 | 28.35589 | -134.07972 | 34081 ft | 471 kts | 254° |
| 2026-05-06 04:29 | 28.33408 | -134.14978 | 34081 ft | 470 kts | 253° |
| 2026-05-06 04:30 | 28.31225 | -134.21975 | 34080 ft | 470 kts | 253° |
| 2026-05-06 04:30 | 28.29037 | -134.28974 | 34081 ft | 470 kts | 253° |
| 2026-05-06 04:31 | 28.26846 | -134.35973 | 34079 ft | 471 kts | 253° |
| 2026-05-06 04:31 | 28.24648 | -134.42974 | 34080 ft | 471 kts | 253° |
| 2026-05-06 04:32 | 28.22448 | -134.49969 | 34081 ft | 471 kts | 253° |
| 2026-05-06 04:32 | 28.20243 | -134.56967 | 34080 ft | 471 kts | 253° |
| 2026-05-06 04:33 | 28.18034 | -134.63960 | 34080 ft | 472 kts | 253° |
| 2026-05-06 04:33 | 28.15821 | -134.70952 | 34082 ft | 471 kts | 253° |
| 2026-05-06 04:34 | 28.13606 | -134.77947 | 34082 ft | 472 kts | 253° |
| 2026-05-06 04:34 | 28.11384 | -134.84940 | 34079 ft | 472 kts | 253° |
| 2026-05-06 04:35 | 28.09157 | -134.91929 | 34084 ft | 472 kts | 253° |
| 2026-05-06 04:35 | 28.06924 | -134.98925 | 34080 ft | 473 kts | 253° |
| 2026-05-06 04:36 | 28.04689 | -135.05921 | 34088 ft | 473 kts | 253° |
| 2026-05-06 04:36 | 28.02451 | -135.12915 | 34089 ft | 473 kts | 252° |
| 2026-05-06 04:37 | 28.00219 | -135.19871 | 34093 ft | 473 kts | 252° |
| 2026-05-06 04:37 | 27.97965 | -135.26870 | 34089 ft | 473 kts | 252° |
| 2026-05-06 04:38 | 27.95697 | -135.33911 | 34094 ft | 474 kts | 252° |
| 2026-05-06 04:38 | 27.93454 | -135.40858 | 34083 ft | 473 kts | 252° |
| 2026-05-06 04:39 | 27.91193 | -135.47849 | 34083 ft | 473 kts | 252° |
| 2026-05-06 04:39 | 27.88927 | -135.54840 | 34083 ft | 473 kts | 252° |
| 2026-05-06 04:40 | 27.86659 | -135.61827 | 34081 ft | 474 kts | 252° |
| 2026-05-06 04:40 | 27.84383 | -135.68818 | 34081 ft | 474 kts | 252° |
| 2026-05-06 04:41 | 27.82107 | -135.75798 | 34078 ft | 474 kts | 251° |
| 2026-05-06 04:41 | 27.79825 | -135.82784 | 34073 ft | 474 kts | 251° |
| 2026-05-06 04:42 | 27.77540 | -135.89767 | 34072 ft | 474 kts | 251° |
| 2026-05-06 04:42 | 27.75622 | -135.95619 | 34073 ft | 474 kts | 251° |
| 2026-05-06 04:43 | 27.73328 | -136.02598 | 34071 ft | 474 kts | 251° |
| 2026-05-06 04:43 | 27.71032 | -136.09571 | 34073 ft | 474 kts | 251° |
| 2026-05-06 04:44 | 27.68361 | -136.17672 | 34072 ft | 474 kts | 251° |
| 2026-05-06 04:44 | 27.66435 | -136.23504 | 34071 ft | 474 kts | 251° |
| 2026-05-06 04:45 | 27.64129 | -136.30474 | 34072 ft | 474 kts | 251° |
| 2026-05-06 04:45 | 27.61819 | -136.37437 | 34071 ft | 474 kts | 251° |
| 2026-05-06 04:46 | 27.59521 | -136.44350 | 34072 ft | 474 kts | 251° |
| 2026-05-06 04:46 | 27.57204 | -136.51308 | 34072 ft | 474 kts | 251° |
| 2026-05-06 04:47 | 27.54882 | -136.58265 | 34078 ft | 474 kts | 251° |
| 2026-05-06 04:47 | 27.52558 | -136.65217 | 34079 ft | 474 kts | 251° |
| 2026-05-06 04:48 | 27.50232 | -136.72163 | 34081 ft | 474 kts | 251° |
| 2026-05-06 04:48 | 27.47903 | -136.79103 | 34085 ft | 474 kts | 251° |
| 2026-05-06 04:49 | 27.45569 | -136.86045 | 34082 ft | 474 kts | 251° |
| 2026-05-06 04:49 | 27.43233 | -136.92984 | 34085 ft | 474 kts | 251° |
| 2026-05-06 04:50 | 27.40892 | -136.99925 | 34080 ft | 474 kts | 251° |
| 2026-05-06 04:50 | 27.38545 | -137.06865 | 34081 ft | 474 kts | 251° |
| 2026-05-06 04:51 | 27.36194 | -137.13805 | 34071 ft | 475 kts | 251° |
| 2026-05-06 04:51 | 27.33840 | -137.20743 | 34074 ft | 475 kts | 251° |
| 2026-05-06 04:52 | 27.31480 | -137.27681 | 34071 ft | 475 kts | 251° |
| 2026-05-06 04:52 | 27.29119 | -137.34614 | 34073 ft | 475 kts | 251° |
| 2026-05-06 04:53 | 27.26752 | -137.41552 | 34074 ft | 475 kts | 251° |
| 2026-05-06 04:53 | 27.24382 | -137.48485 | 34073 ft | 475 kts | 251° |
| 2026-05-06 04:54 | 27.22025 | -137.55366 | 34072 ft | 475 kts | 251° |
| 2026-05-06 04:54 | 27.19649 | -137.62291 | 34074 ft | 475 kts | 251° |
| 2026-05-06 04:55 | 27.17268 | -137.69216 | 34074 ft | 475 kts | 251° |
| 2026-05-06 04:55 | 27.14882 | -137.76140 | 34073 ft | 475 kts | 251° |
| 2026-05-06 04:56 | 27.12494 | -137.83061 | 34074 ft | 475 kts | 251° |
| 2026-05-06 04:56 | 27.10102 | -137.89981 | 34073 ft | 475 kts | 251° |
| 2026-05-06 04:57 | 27.07706 | -137.96897 | 34071 ft | 475 kts | 251° |
| 2026-05-06 04:57 | 27.05313 | -138.03791 | 34071 ft | 475 kts | 251° |
| 2026-05-06 04:58 | 27.02910 | -138.10710 | 34074 ft | 475 kts | 251° |
| 2026-05-06 04:58 | 27.00504 | -138.17618 | 34074 ft | 475 kts | 251° |
| 2026-05-06 04:59 | 26.98097 | -138.24515 | 34072 ft | 475 kts | 251° |
| 2026-05-06 04:59 | 26.95686 | -138.31393 | 34073 ft | 475 kts | 251° |
| 2026-05-06 05:00 | 26.93259 | -138.38293 | 34076 ft | 475 kts | 251° |
| 2026-05-06 05:00 | 26.90837 | -138.45174 | 34072 ft | 475 kts | 251° |
| 2026-05-06 05:01 | 26.88414 | -138.52053 | 34074 ft | 475 kts | 250° |
| 2026-05-06 05:01 | 26.85986 | -138.58927 | 34073 ft | 475 kts | 250° |
| 2026-05-06 05:02 | 26.83556 | -138.65798 | 34081 ft | 474 kts | 250° |
| 2026-05-06 05:02 | 26.81126 | -138.72663 | 34081 ft | 474 kts | 250° |
| 2026-05-06 05:03 | 26.78695 | -138.79517 | 34078 ft | 474 kts | 250° |
| 2026-05-06 05:03 | 26.76255 | -138.86371 | 34079 ft | 474 kts | 250° |
| 2026-05-06 05:04 | 26.73922 | -138.92922 | 34080 ft | 474 kts | 250° |
| 2026-05-06 05:04 | 26.71475 | -138.99776 | 34081 ft | 474 kts | 250° |
| 2026-05-06 05:05 | 26.69028 | -139.06624 | 34082 ft | 474 kts | 250° |
| 2026-05-06 05:05 | 26.66576 | -139.13471 | 34081 ft | 474 kts | 250° |
| 2026-05-06 05:06 | 26.64124 | -139.20306 | 34079 ft | 474 kts | 250° |
| 2026-05-06 05:06 | 26.61666 | -139.27139 | 34081 ft | 474 kts | 250° |
| 2026-05-06 05:07 | 26.59221 | -139.33932 | 34080 ft | 474 kts | 250° |
| 2026-05-06 05:07 | 26.56757 | -139.40768 | 34082 ft | 474 kts | 250° |
| 2026-05-06 05:08 | 26.54289 | -139.47602 | 34084 ft | 474 kts | 250° |
| 2026-05-06 05:08 | 26.51816 | -139.54432 | 34080 ft | 474 kts | 250° |
| 2026-05-06 05:09 | 26.49340 | -139.61262 | 34083 ft | 475 kts | 250° |
| 2026-05-06 05:09 | 26.46860 | -139.68093 | 34083 ft | 475 kts | 250° |
| 2026-05-06 05:10 | 26.44379 | -139.74918 | 34064 ft | 475 kts | 250° |
| 2026-05-06 05:10 | 26.41894 | -139.81743 | 34054 ft | 475 kts | 249° |
| 2026-05-06 05:11 | 26.39400 | -139.88568 | 34053 ft | 475 kts | 249° |
| 2026-05-06 05:11 | 26.36908 | -139.95386 | 34055 ft | 475 kts | 249° |
| 2026-05-06 05:12 | 26.34409 | -140.02206 | 34054 ft | 475 kts | 249° |
| 2026-05-06 05:12 | 26.31908 | -140.09024 | 34054 ft | 475 kts | 249° |
| 2026-05-06 05:13 | 26.29404 | -140.15832 | 34061 ft | 475 kts | 249° |
| 2026-05-06 05:13 | 26.26899 | -140.22639 | 34063 ft | 475 kts | 249° |
| 2026-05-06 05:14 | 26.24388 | -140.29445 | 34064 ft | 475 kts | 249° |
| 2026-05-06 05:14 | 26.21874 | -140.36242 | 34064 ft | 474 kts | 249° |
| 2026-05-06 05:15 | 26.19360 | -140.43025 | 34064 ft | 474 kts | 249° |
| 2026-05-06 05:15 | 26.16848 | -140.49806 | 34064 ft | 474 kts | 249° |
| 2026-05-06 05:16 | 26.14334 | -140.56583 | 34063 ft | 474 kts | 249° |
| 2026-05-06 05:16 | 26.11815 | -140.63357 | 34064 ft | 473 kts | 249° |
| 2026-05-06 05:17 | 26.09295 | -140.70116 | 34064 ft | 473 kts | 249° |
| 2026-05-06 05:17 | 26.06792 | -140.76824 | 34062 ft | 472 kts | 249° |
| 2026-05-06 05:18 | 26.04271 | -140.83566 | 34062 ft | 472 kts | 249° |
| 2026-05-06 05:18 | 26.01748 | -140.90305 | 34063 ft | 472 kts | 249° |
| 2026-05-06 05:19 | 25.99228 | -140.97026 | 34063 ft | 471 kts | 249° |
| 2026-05-06 05:19 | 25.96709 | -141.03731 | 34063 ft | 469 kts | 249° |
| 2026-05-06 05:20 | 25.94193 | -141.10412 | 34064 ft | 468 kts | 249° |
| 2026-05-06 05:20 | 25.91679 | -141.17081 | 34058 ft | 468 kts | 249° |
| 2026-05-06 05:21 | 25.89168 | -141.23744 | 34053 ft | 468 kts | 249° |
| 2026-05-06 05:21 | 25.86650 | -141.30397 | 34055 ft | 467 kts | 249° |
| 2026-05-06 05:22 | 25.84133 | -141.37037 | 34054 ft | 467 kts | 249° |
| 2026-05-06 05:22 | 25.81615 | -141.43675 | 34053 ft | 467 kts | 249° |
| 2026-05-06 05:23 | 25.79094 | -141.50307 | 34055 ft | 466 kts | 249° |
| 2026-05-06 05:23 | 25.75309 | -141.60246 | 34056 ft | 466 kts | 249° |
| 2026-05-06 05:24 | 25.72783 | -141.66866 | 34053 ft | 466 kts | 249° |
| 2026-05-06 05:24 | 25.70254 | -141.73485 | 34054 ft | 466 kts | 249° |
| 2026-05-06 05:25 | 25.67740 | -141.80053 | 34054 ft | 466 kts | 249° |
| 2026-05-06 05:25 | 25.65204 | -141.86666 | 34054 ft | 466 kts | 249° |
| 2026-05-06 05:26 | 25.62666 | -141.93272 | 34055 ft | 466 kts | 249° |
| 2026-05-06 05:26 | 25.60126 | -141.99876 | 34054 ft | 466 kts | 249° |
| 2026-05-06 05:27 | 25.57584 | -142.06475 | 34056 ft | 466 kts | 249° |
| 2026-05-06 05:27 | 25.55040 | -142.13067 | 34055 ft | 465 kts | 249° |
| 2026-05-06 05:28 | 25.52496 | -142.19648 | 34054 ft | 465 kts | 249° |
| 2026-05-06 05:28 | 25.49952 | -142.26221 | 34055 ft | 464 kts | 249° |
| 2026-05-06 05:29 | 25.47410 | -142.32780 | 34055 ft | 464 kts | 249° |
| 2026-05-06 05:29 | 25.45277 | -142.38274 | 34055 ft | 463 kts | 249° |
| 2026-05-06 05:30 | 25.42749 | -142.44772 | 34054 ft | 463 kts | 249° |
| 2026-05-06 05:30 | 25.40202 | -142.51311 | 34054 ft | 462 kts | 249° |
| 2026-05-06 05:31 | 25.37657 | -142.57836 | 34055 ft | 462 kts | 249° |
| 2026-05-06 05:31 | 25.35113 | -142.64350 | 34052 ft | 461 kts | 249° |
| 2026-05-06 05:32 | 25.32568 | -142.70856 | 34055 ft | 461 kts | 249° |
| 2026-05-06 05:32 | 25.30024 | -142.77349 | 34055 ft | 460 kts | 249° |
| 2026-05-06 05:33 | 25.27478 | -142.83835 | 34053 ft | 460 kts | 249° |
| 2026-05-06 05:33 | 25.24932 | -142.90312 | 34055 ft | 459 kts | 248° |
| 2026-05-06 05:34 | 25.22418 | -142.96700 | 34055 ft | 458 kts | 249° |
| 2026-05-06 05:34 | 25.19875 | -143.03159 | 34056 ft | 458 kts | 249° |
| 2026-05-06 05:35 | 25.17328 | -143.09607 | 34053 ft | 458 kts | 249° |
| 2026-05-06 05:35 | 25.14780 | -143.16044 | 34054 ft | 458 kts | 249° |
| 2026-05-06 05:36 | 25.12231 | -143.22479 | 34054 ft | 457 kts | 248° |
| 2026-05-06 05:36 | 25.09681 | -143.28909 | 34056 ft | 457 kts | 248° |
| 2026-05-06 05:37 | 25.07131 | -143.35328 | 34053 ft | 456 kts | 248° |
| 2026-05-06 05:37 | 25.04581 | -143.41738 | 34053 ft | 456 kts | 248° |
| 2026-05-06 05:38 | 25.02030 | -143.48145 | 34053 ft | 456 kts | 248° |
| 2026-05-06 05:38 | 24.99474 | -143.54551 | 34054 ft | 456 kts | 248° |
| 2026-05-06 05:39 | 24.96918 | -143.60938 | 34053 ft | 455 kts | 248° |
| 2026-05-06 05:39 | 24.94364 | -143.67322 | 34054 ft | 455 kts | 248° |
| 2026-05-06 05:40 | 24.91808 | -143.73701 | 34054 ft | 455 kts | 248° |
| 2026-05-06 05:40 | 24.89248 | -143.80080 | 34054 ft | 455 kts | 248° |
| 2026-05-06 05:41 | 24.86690 | -143.86444 | 34053 ft | 454 kts | 248° |
| 2026-05-06 05:41 | 24.84130 | -143.92807 | 34071 ft | 454 kts | 248° |
| 2026-05-06 05:42 | 24.81566 | -143.99165 | 34073 ft | 454 kts | 248° |
| 2026-05-06 05:42 | 24.79000 | -144.05517 | 34072 ft | 454 kts | 248° |
| 2026-05-06 05:43 | 24.76455 | -144.11812 | 34072 ft | 453 kts | 248° |
| 2026-05-06 05:43 | 24.73891 | -144.18144 | 34074 ft | 453 kts | 248° |
| 2026-05-06 05:44 | 24.71327 | -144.24468 | 34074 ft | 452 kts | 248° |
| 2026-05-06 05:44 | 24.68765 | -144.30777 | 34073 ft | 452 kts | 248° |
| 2026-05-06 05:45 | 24.66198 | -144.37088 | 34072 ft | 452 kts | 248° |
| 2026-05-06 05:45 | 24.63630 | -144.43396 | 34075 ft | 452 kts | 248° |
| 2026-05-06 05:46 | 24.61058 | -144.49702 | 34073 ft | 452 kts | 248° |
| 2026-05-06 05:46 | 24.58484 | -144.56003 | 34083 ft | 452 kts | 248° |
| 2026-05-06 05:47 | 24.55907 | -144.62306 | 34082 ft | 452 kts | 248° |
| 2026-05-06 05:47 | 24.53329 | -144.68602 | 34084 ft | 452 kts | 248° |
| 2026-05-06 05:48 | 24.50749 | -144.74892 | 34085 ft | 452 kts | 248° |
| 2026-05-06 05:48 | 24.48168 | -144.81176 | 34082 ft | 451 kts | 248° |
| 2026-05-06 05:49 | 24.45584 | -144.87455 | 34082 ft | 451 kts | 248° |
| 2026-05-06 05:49 | 24.42998 | -144.93733 | 34083 ft | 451 kts | 248° |
| 2026-05-06 05:50 | 24.40410 | -145.00012 | 34081 ft | 451 kts | 248° |
| 2026-05-06 05:50 | 24.37822 | -145.06282 | 34085 ft | 451 kts | 248° |
| 2026-05-06 05:51 | 24.35235 | -145.12547 | 34083 ft | 451 kts | 248° |
| 2026-05-06 05:51 | 24.32659 | -145.18781 | 34080 ft | 451 kts | 248° |
| 2026-05-06 05:52 | 24.30068 | -145.25041 | 34078 ft | 451 kts | 248° |
| 2026-05-06 05:52 | 24.27469 | -145.31301 | 34082 ft | 451 kts | 248° |
| 2026-05-06 05:53 | 24.24869 | -145.37556 | 34082 ft | 451 kts | 248° |
| 2026-05-06 05:53 | 24.22272 | -145.43809 | 34080 ft | 451 kts | 248° |
| 2026-05-06 05:54 | 24.19672 | -145.50061 | 34080 ft | 451 kts | 248° |
| 2026-05-06 05:54 | 24.17071 | -145.56309 | 34082 ft | 451 kts | 248° |
| 2026-05-06 05:55 | 24.14466 | -145.62549 | 34082 ft | 450 kts | 248° |
| 2026-05-06 05:55 | 24.11858 | -145.68780 | 34085 ft | 450 kts | 248° |
| 2026-05-06 05:56 | 24.09249 | -145.75010 | 34080 ft | 450 kts | 248° |
| 2026-05-06 05:56 | 24.06639 | -145.81233 | 34083 ft | 450 kts | 248° |
| 2026-05-06 05:57 | 24.04030 | -145.87454 | 34085 ft | 450 kts | 248° |
| 2026-05-06 05:57 | 24.01416 | -145.93675 | 34082 ft | 450 kts | 248° |
| 2026-05-06 05:58 | 23.98801 | -145.99887 | 34082 ft | 450 kts | 248° |
| 2026-05-06 05:58 | 23.96179 | -146.06101 | 34081 ft | 450 kts | 248° |
| 2026-05-06 05:59 | 23.93561 | -146.12307 | 34075 ft | 450 kts | 248° |
| 2026-05-06 05:59 | 23.90940 | -146.18512 | 34073 ft | 449 kts | 248° |
| 2026-05-06 06:00 | 23.88318 | -146.24713 | 34072 ft | 450 kts | 247° |
| 2026-05-06 06:00 | 23.85705 | -146.30875 | 34075 ft | 450 kts | 247° |
| 2026-05-06 06:01 | 23.83076 | -146.37073 | 34074 ft | 450 kts | 247° |
| 2026-05-06 06:01 | 23.80443 | -146.43265 | 34087 ft | 450 kts | 247° |
| 2026-05-06 06:02 | 23.77808 | -146.49456 | 34091 ft | 450 kts | 247° |
| 2026-05-06 06:02 | 23.75166 | -146.55654 | 34092 ft | 450 kts | 247° |
| 2026-05-06 06:03 | 23.72525 | -146.61848 | 34092 ft | 450 kts | 247° |
| 2026-05-06 06:03 | 23.69879 | -146.68040 | 34091 ft | 450 kts | 247° |
| 2026-05-06 06:04 | 23.67261 | -146.74158 | 34091 ft | 450 kts | 247° |
| 2026-05-06 06:04 | 23.64612 | -146.80342 | 34091 ft | 450 kts | 247° |
| 2026-05-06 06:05 | 23.61962 | -146.86523 | 34089 ft | 450 kts | 247° |
| 2026-05-06 06:05 | 23.59325 | -146.92662 | 34093 ft | 450 kts | 247° |
| 2026-05-06 06:06 | 23.56665 | -146.98849 | 34091 ft | 451 kts | 247° |
| 2026-05-06 06:06 | 23.54001 | -147.05033 | 34091 ft | 451 kts | 247° |
| 2026-05-06 06:07 | 23.51338 | -147.11211 | 34089 ft | 450 kts | 247° |
| 2026-05-06 06:07 | 23.48673 | -147.17385 | 34091 ft | 450 kts | 246° |
| 2026-05-06 06:08 | 23.46004 | -147.23554 | 34090 ft | 450 kts | 246° |
| 2026-05-06 06:08 | 23.43337 | -147.29711 | 34092 ft | 450 kts | 246° |
| 2026-05-06 06:09 | 23.40666 | -147.35877 | 34090 ft | 450 kts | 246° |
| 2026-05-06 06:09 | 23.37995 | -147.42036 | 34094 ft | 450 kts | 246° |
| 2026-05-06 06:10 | 23.35321 | -147.48187 | 34096 ft | 450 kts | 246° |
| 2026-05-06 06:10 | 23.32642 | -147.54338 | 34087 ft | 450 kts | 246° |
| 2026-05-06 06:11 | 23.29964 | -147.60487 | 34092 ft | 450 kts | 246° |
| 2026-05-06 06:11 | 23.27303 | -147.66591 | 34092 ft | 449 kts | 246° |
| 2026-05-06 06:12 | 23.24603 | -147.72769 | 34089 ft | 450 kts | 246° |
| 2026-05-06 06:12 | 23.21918 | -147.78907 | 34091 ft | 450 kts | 246° |
| 2026-05-06 06:13 | 23.19248 | -147.85002 | 34090 ft | 450 kts | 246° |
| 2026-05-06 06:13 | 23.16557 | -147.91137 | 34090 ft | 450 kts | 246° |
| 2026-05-06 06:14 | 23.13863 | -147.97272 | 34085 ft | 450 kts | 246° |
| 2026-05-06 06:14 | 23.11168 | -148.03402 | 34081 ft | 450 kts | 246° |
| 2026-05-06 06:15 | 23.08471 | -148.09528 | 34082 ft | 450 kts | 246° |
| 2026-05-06 06:15 | 23.05770 | -148.15653 | 34082 ft | 450 kts | 246° |
| 2026-05-06 06:16 | 23.03069 | -148.21778 | 34084 ft | 450 kts | 246° |
| 2026-05-06 06:16 | 23.00365 | -148.27894 | 34083 ft | 449 kts | 246° |
| 2026-05-06 06:17 | 22.97666 | -148.33991 | 34080 ft | 448 kts | 246° |
| 2026-05-06 06:17 | 22.94966 | -148.40084 | 34080 ft | 448 kts | 246° |
| 2026-05-06 06:18 | 22.92719 | -148.45151 | 34083 ft | 449 kts | 246° |
| 2026-05-06 06:18 | 22.90013 | -148.51245 | 34081 ft | 449 kts | 246° |
| 2026-05-06 06:19 | 22.87302 | -148.57343 | 34081 ft | 448 kts | 246° |
| 2026-05-06 06:19 | 22.84590 | -148.63436 | 34081 ft | 449 kts | 246° |
| 2026-05-06 06:20 | 22.81877 | -148.69529 | 34080 ft | 449 kts | 246° |
| 2026-05-06 06:20 | 22.79161 | -148.75617 | 34079 ft | 449 kts | 246° |
| 2026-05-06 06:21 | 22.76439 | -148.81702 | 34083 ft | 449 kts | 246° |
| 2026-05-06 06:21 | 22.73717 | -148.87780 | 34083 ft | 448 kts | 246° |
| 2026-05-06 06:22 | 22.70993 | -148.93862 | 34081 ft | 448 kts | 246° |
| 2026-05-06 06:22 | 22.68273 | -148.99931 | 34082 ft | 448 kts | 246° |
| 2026-05-06 06:23 | 22.65553 | -149.05994 | 34082 ft | 447 kts | 246° |
| 2026-05-06 06:23 | 22.62828 | -149.12048 | 34080 ft | 447 kts | 246° |
| 2026-05-06 06:24 | 22.60103 | -149.18100 | 34083 ft | 447 kts | 246° |
| 2026-05-06 06:24 | 22.57377 | -149.24150 | 34083 ft | 447 kts | 246° |
| 2026-05-06 06:25 | 22.54667 | -149.30157 | 34081 ft | 447 kts | 246° |
| 2026-05-06 06:26 | 22.50570 | -149.39222 | 34082 ft | 447 kts | 246° |
| 2026-05-06 06:26 | 22.47836 | -149.45259 | 34082 ft | 447 kts | 246° |
| 2026-05-06 06:27 | 22.45098 | -149.51296 | 34079 ft | 447 kts | 246° |
| 2026-05-06 06:27 | 22.42360 | -149.57330 | 34083 ft | 447 kts | 246° |
| 2026-05-06 06:28 | 22.39619 | -149.63360 | 34080 ft | 447 kts | 246° |
| 2026-05-06 06:28 | 22.36880 | -149.69381 | 34081 ft | 446 kts | 246° |
| 2026-05-06 06:29 | 22.34141 | -149.75395 | 34085 ft | 446 kts | 246° |
| 2026-05-06 06:29 | 22.31400 | -149.81406 | 34081 ft | 446 kts | 245° |
| 2026-05-06 06:30 | 22.28659 | -149.87411 | 34084 ft | 446 kts | 245° |
| 2026-05-06 06:30 | 22.25915 | -149.93416 | 34084 ft | 446 kts | 245° |
| 2026-05-06 06:31 | 22.23170 | -149.99414 | 34084 ft | 446 kts | 245° |
| 2026-05-06 06:31 | 22.20423 | -150.05409 | 34074 ft | 446 kts | 245° |
| 2026-05-06 06:32 | 22.17672 | -150.11407 | 34074 ft | 446 kts | 245° |
| 2026-05-06 06:32 | 22.14921 | -150.17398 | 34073 ft | 446 kts | 245° |
| 2026-05-06 06:33 | 22.12165 | -150.23393 | 34073 ft | 446 kts | 245° |
| 2026-05-06 06:33 | 22.09409 | -150.29379 | 34072 ft | 445 kts | 245° |
| 2026-05-06 06:34 | 22.06652 | -150.35359 | 34072 ft | 445 kts | 245° |
| 2026-05-06 06:34 | 22.03892 | -150.41340 | 34074 ft | 446 kts | 245° |
| 2026-05-06 06:35 | 22.01131 | -150.47319 | 34073 ft | 445 kts | 245° |
| 2026-05-06 06:35 | 21.98367 | -150.53295 | 34072 ft | 445 kts | 245° |
| 2026-05-06 06:36 | 21.95608 | -150.59260 | 34071 ft | 445 kts | 245° |
| 2026-05-06 06:36 | 21.92863 | -150.65179 | 34073 ft | 444 kts | 245° |
| 2026-05-06 06:37 | 21.90104 | -150.71119 | 34073 ft | 444 kts | 245° |
| 2026-05-06 06:37 | 21.87343 | -150.77063 | 34075 ft | 444 kts | 245° |
| 2026-05-06 06:38 | 21.84580 | -150.83006 | 34074 ft | 444 kts | 245° |
| 2026-05-06 06:38 | 21.81816 | -150.88940 | 34069 ft | 443 kts | 245° |
| 2026-05-06 06:39 | 21.79051 | -150.94865 | 34074 ft | 443 kts | 245° |
| 2026-05-06 06:39 | 21.76286 | -151.00791 | 34072 ft | 443 kts | 245° |
| 2026-05-06 06:40 | 21.73519 | -151.06705 | 34072 ft | 443 kts | 245° |
| 2026-05-06 06:40 | 21.70750 | -151.12621 | 34072 ft | 443 kts | 245° |
| 2026-05-06 06:41 | 21.67982 | -151.18536 | 34073 ft | 443 kts | 245° |
| 2026-05-06 06:41 | 21.65210 | -151.24449 | 34071 ft | 443 kts | 245° |
| 2026-05-06 06:42 | 21.62437 | -151.30358 | 34073 ft | 443 kts | 245° |
| 2026-05-06 06:42 | 21.59659 | -151.36265 | 34072 ft | 443 kts | 245° |
| 2026-05-06 06:43 | 21.56882 | -151.42161 | 34086 ft | 442 kts | 245° |
| 2026-05-06 06:43 | 21.54087 | -151.48097 | 34175 ft | 448 kts | 245° |
| 2026-05-06 06:43 | 21.52660 | -151.51078 | 34352 ft | 448 kts | 245° |
| 2026-05-06 06:44 | 21.51219 | -151.54044 | 34608 ft | 447 kts | 244° |
| 2026-05-06 06:44 | 21.49778 | -151.56994 | 34859 ft | 445 kts | 244° |
| 2026-05-06 06:44 | 21.48342 | -151.59933 | 35077 ft | 444 kts | 244° |
| 2026-05-06 06:44 | 21.46913 | -151.62864 | 35284 ft | 443 kts | 244° |
| 2026-05-06 06:45 | 21.45487 | -151.65793 | 35484 ft | 442 kts | 244° |
| 2026-05-06 06:45 | 21.44067 | -151.68711 | 35684 ft | 440 kts | 244° |
| 2026-05-06 06:45 | 21.42654 | -151.71621 | 35866 ft | 439 kts | 245° |
| 2026-05-06 06:45 | 21.41241 | -151.74529 | 36025 ft | 440 kts | 245° |
| 2026-05-06 06:46 | 21.39823 | -151.77442 | 36060 ft | 442 kts | 245° |
| 2026-05-06 06:46 | 21.36984 | -151.83277 | 36064 ft | 445 kts | 244° |
| 2026-05-06 06:47 | 21.34117 | -151.89156 | 36066 ft | 444 kts | 244° |
| 2026-05-06 06:47 | 21.31251 | -151.95026 | 36064 ft | 444 kts | 244° |
| 2026-05-06 06:48 | 21.28383 | -152.00893 | 36059 ft | 444 kts | 244° |
| 2026-05-06 06:48 | 21.25516 | -152.06753 | 36067 ft | 444 kts | 244° |
| 2026-05-06 06:49 | 21.22649 | -152.12612 | 36061 ft | 444 kts | 244° |
| 2026-05-06 06:49 | 21.19775 | -152.18470 | 36071 ft | 444 kts | 244° |
| 2026-05-06 06:50 | 21.16904 | -152.24324 | 36072 ft | 444 kts | 244° |
| 2026-05-06 06:50 | 21.14033 | -152.30169 | 36070 ft | 443 kts | 244° |
| 2026-05-06 06:51 | 21.11161 | -152.36008 | 36073 ft | 443 kts | 244° |
| 2026-05-06 06:51 | 21.08285 | -152.41846 | 36075 ft | 443 kts | 244° |
| 2026-05-06 06:52 | 21.05428 | -152.47639 | 36070 ft | 442 kts | 244° |
| 2026-05-06 06:52 | 21.02537 | -152.53496 | 36071 ft | 442 kts | 244° |
| 2026-05-06 06:53 | 20.99685 | -152.59275 | 36074 ft | 442 kts | 244° |
| 2026-05-06 06:53 | 20.96810 | -152.65090 | 36077 ft | 442 kts | 244° |
| 2026-05-06 06:54 | 20.93934 | -152.70901 | 36076 ft | 442 kts | 244° |
| 2026-05-06 06:54 | 20.91054 | -152.76706 | 36060 ft | 442 kts | 244° |
| 2026-05-06 06:55 | 20.88173 | -152.82516 | 36061 ft | 442 kts | 244° |
| 2026-05-06 06:55 | 20.85292 | -152.88318 | 36067 ft | 442 kts | 244° |
| 2026-05-06 06:56 | 20.82409 | -152.94120 | 36065 ft | 442 kts | 244° |
| 2026-05-06 06:56 | 20.79295 | -152.99787 | 36065 ft | 445 kts | 236° |
| 2026-05-06 06:57 | 20.75190 | -153.04774 | 36065 ft | 448 kts | 230° |
| 2026-05-06 06:57 | 20.70841 | -153.09542 | 36063 ft | 449 kts | 229° |
| 2026-05-06 06:58 | 20.66467 | -153.14261 | 36065 ft | 449 kts | 229° |
| 2026-05-06 06:58 | 20.62089 | -153.19000 | 36064 ft | 448 kts | 229° |
| 2026-05-06 06:59 | 20.57731 | -153.23742 | 36061 ft | 448 kts | 229° |
| 2026-05-06 06:59 | 20.53371 | -153.28485 | 36065 ft | 448 kts | 229° |
| 2026-05-06 07:00 | 20.49008 | -153.33224 | 36064 ft | 448 kts | 229° |
| 2026-05-06 07:00 | 20.44646 | -153.37960 | 36063 ft | 448 kts | 229° |
| 2026-05-06 07:01 | 20.40283 | -153.42690 | 36065 ft | 447 kts | 229° |
| 2026-05-06 07:01 | 20.35921 | -153.47420 | 36071 ft | 447 kts | 229° |
| 2026-05-06 07:02 | 20.31558 | -153.52146 | 36090 ft | 446 kts | 229° |
| 2026-05-06 07:02 | 20.27204 | -153.56856 | 36091 ft | 446 kts | 229° |
| 2026-05-06 07:03 | 20.22851 | -153.61560 | 36091 ft | 446 kts | 229° |
| 2026-05-06 07:03 | 20.18497 | -153.66264 | 36091 ft | 446 kts | 229° |
| 2026-05-06 07:04 | 20.14144 | -153.70963 | 36091 ft | 446 kts | 229° |
| 2026-05-06 07:04 | 20.09787 | -153.75661 | 36090 ft | 445 kts | 229° |
| 2026-05-06 07:05 | 20.05435 | -153.80351 | 36092 ft | 445 kts | 229° |
| 2026-05-06 07:05 | 20.01107 | -153.85007 | 36090 ft | 446 kts | 229° |
| 2026-05-06 07:06 | 19.96721 | -153.89725 | 36091 ft | 446 kts | 229° |
| 2026-05-06 07:06 | 19.92394 | -153.94375 | 36091 ft | 445 kts | 229° |
| 2026-05-06 07:07 | 19.88744 | -153.98295 | 36090 ft | 445 kts | 229° |
| 2026-05-06 07:07 | 19.84385 | -154.02974 | 36091 ft | 445 kts | 229° |
| 2026-05-06 07:08 | 19.80024 | -154.07653 | 36092 ft | 445 kts | 229° |
| 2026-05-06 07:08 | 19.75661 | -154.12324 | 36096 ft | 445 kts | 229° |
| 2026-05-06 07:09 | 19.71299 | -154.16993 | 36169 ft | 445 kts | 228° |
| 2026-05-06 07:09 | 19.66936 | -154.21656 | 36109 ft | 445 kts | 229° |
| 2026-05-06 07:10 | 19.62573 | -154.26319 | 36092 ft | 446 kts | 229° |
| 2026-05-06 07:10 | 19.58205 | -154.30984 | 36091 ft | 446 kts | 229° |
| 2026-05-06 07:11 | 19.53834 | -154.35647 | 36091 ft | 445 kts | 228° |
| 2026-05-06 07:11 | 19.49468 | -154.40301 | 36091 ft | 445 kts | 228° |
| 2026-05-06 07:12 | 19.45128 | -154.44925 | 36091 ft | 446 kts | 228° |
| 2026-05-06 07:12 | 19.40757 | -154.49576 | 36091 ft | 446 kts | 228° |
| 2026-05-06 07:13 | 19.36384 | -154.54227 | 36091 ft | 446 kts | 228° |
| 2026-05-06 07:13 | 19.32006 | -154.58880 | 36090 ft | 446 kts | 228° |
| 2026-05-06 07:14 | 19.27623 | -154.63533 | 36091 ft | 446 kts | 228° |
| 2026-05-06 07:14 | 19.23236 | -154.68188 | 36092 ft | 446 kts | 228° |
| 2026-05-06 07:15 | 19.18850 | -154.72837 | 36091 ft | 446 kts | 228° |
| 2026-05-06 07:15 | 19.14464 | -154.77482 | 36091 ft | 446 kts | 228° |
| 2026-05-06 07:16 | 19.10074 | -154.82126 | 36091 ft | 446 kts | 228° |
| 2026-05-06 07:16 | 19.05683 | -154.86769 | 36091 ft | 446 kts | 228° |
| 2026-05-06 07:17 | 19.01291 | -154.91410 | 36091 ft | 447 kts | 228° |
| 2026-05-06 07:17 | 18.96898 | -154.96049 | 36091 ft | 447 kts | 228° |
| 2026-05-06 07:18 | 18.92503 | -155.00685 | 36091 ft | 446 kts | 228° |
| 2026-05-06 07:18 | 18.88106 | -155.05320 | 36092 ft | 447 kts | 228° |
| 2026-05-06 07:19 | 18.83708 | -155.09958 | 36158 ft | 447 kts | 228° |
| 2026-05-06 07:19 | 18.79338 | -155.14550 | 36220 ft | 446 kts | 228° |
| 2026-05-06 07:20 | 18.74943 | -155.19169 | 36230 ft | 446 kts | 228° |
| 2026-05-06 07:20 | 18.70547 | -155.23792 | 36229 ft | 446 kts | 228° |
| 2026-05-06 07:21 | 18.66154 | -155.28409 | 36230 ft | 446 kts | 228° |
| 2026-05-06 07:21 | 18.61751 | -155.33031 | 36238 ft | 447 kts | 228° |
| 2026-05-06 07:22 | 18.57341 | -155.37651 | 36238 ft | 447 kts | 228° |
| 2026-05-06 07:22 | 18.52925 | -155.42274 | 36239 ft | 447 kts | 227° |
| 2026-05-06 07:23 | 18.48516 | -155.46889 | 36239 ft | 447 kts | 227° |
| 2026-05-06 07:23 | 18.44107 | -155.51504 | 36251 ft | 447 kts | 227° |
| 2026-05-06 07:24 | 18.39695 | -155.56115 | 36249 ft | 447 kts | 227° |
| 2026-05-06 07:24 | 18.35284 | -155.60723 | 36239 ft | 447 kts | 227° |
| 2026-05-06 07:25 | 18.30865 | -155.65330 | 36238 ft | 447 kts | 227° |
| 2026-05-06 07:25 | 18.26450 | -155.69934 | 36229 ft | 447 kts | 227° |
| 2026-05-06 07:26 | 18.22035 | -155.74536 | 36230 ft | 447 kts | 227° |
| 2026-05-06 07:26 | 18.17622 | -155.79132 | 36229 ft | 446 kts | 227° |
| 2026-05-06 07:27 | 18.13237 | -155.83692 | 36229 ft | 447 kts | 227° |
| 2026-05-06 07:27 | 18.08818 | -155.88287 | 36230 ft | 447 kts | 227° |
| 2026-05-06 07:28 | 18.04372 | -155.92912 | 36229 ft | 447 kts | 227° |
| 2026-05-06 07:28 | 17.97768 | -155.99761 | 36220 ft | 447 kts | 227° |
| 2026-05-06 07:29 | 17.93349 | -156.04343 | 36220 ft | 447 kts | 227° |
| 2026-05-06 07:29 | 17.88927 | -156.08925 | 36185 ft | 447 kts | 227° |
| 2026-05-06 07:30 | 17.84501 | -156.13507 | 36079 ft | 447 kts | 227° |
| 2026-05-06 07:30 | 17.80066 | -156.18095 | 36075 ft | 448 kts | 227° |
| 2026-05-06 07:31 | 17.75632 | -156.22680 | 36075 ft | 448 kts | 227° |
| 2026-05-06 07:31 | 17.71195 | -156.27265 | 36071 ft | 448 kts | 227° |
| 2026-05-06 07:32 | 17.66753 | -156.31849 | 36073 ft | 448 kts | 227° |
| 2026-05-06 07:32 | 17.62314 | -156.36430 | 36072 ft | 448 kts | 227° |
| 2026-05-06 07:33 | 17.57873 | -156.41007 | 36072 ft | 448 kts | 227° |
| 2026-05-06 07:33 | 17.53461 | -156.45554 | 36069 ft | 448 kts | 227° |
| 2026-05-06 07:34 | 17.48986 | -156.50161 | 36071 ft | 448 kts | 227° |
| 2026-05-06 07:34 | 17.44539 | -156.54735 | 36074 ft | 448 kts | 227° |
| 2026-05-06 07:35 | 17.40090 | -156.59307 | 36070 ft | 448 kts | 227° |
| 2026-05-06 07:35 | 17.35641 | -156.63876 | 36076 ft | 448 kts | 227° |
| 2026-05-06 07:36 | 17.31245 | -156.68386 | 36071 ft | 448 kts | 227° |
| 2026-05-06 07:36 | 17.26796 | -156.72949 | 36075 ft | 448 kts | 227° |
| 2026-05-06 07:37 | 17.22346 | -156.77515 | 36073 ft | 448 kts | 227° |
| 2026-05-06 07:37 | 17.17889 | -156.82080 | 36073 ft | 449 kts | 227° |
| 2026-05-06 07:38 | 17.13427 | -156.86646 | 36074 ft | 449 kts | 227° |
| 2026-05-06 07:38 | 17.08965 | -156.91209 | 36071 ft | 449 kts | 227° |
| 2026-05-06 07:39 | 17.04500 | -156.95772 | 36076 ft | 449 kts | 227° |
| 2026-05-06 07:39 | 17.00032 | -157.00334 | 36074 ft | 449 kts | 227° |
| 2026-05-06 07:40 | 16.95566 | -157.04891 | 36071 ft | 449 kts | 227° |
| 2026-05-06 07:40 | 16.91096 | -157.09449 | 36069 ft | 449 kts | 227° |
| 2026-05-06 07:41 | 16.86626 | -157.14004 | 36062 ft | 449 kts | 227° |
| 2026-05-06 07:41 | 16.82156 | -157.18557 | 36059 ft | 449 kts | 227° |
| 2026-05-06 07:42 | 16.77682 | -157.23112 | 36067 ft | 449 kts | 227° |
| 2026-05-06 07:42 | 16.73209 | -157.27658 | 36062 ft | 449 kts | 227° |
| 2026-05-06 07:43 | 16.68736 | -157.32205 | 36064 ft | 449 kts | 227° |
| 2026-05-06 07:43 | 16.64288 | -157.36723 | 36063 ft | 449 kts | 227° |
| 2026-05-06 07:44 | 16.59809 | -157.41269 | 36063 ft | 449 kts | 227° |
| 2026-05-06 07:44 | 16.55331 | -157.45812 | 36065 ft | 449 kts | 227° |
| 2026-05-06 07:45 | 16.50850 | -157.50356 | 36067 ft | 450 kts | 227° |
| 2026-05-06 07:45 | 16.46367 | -157.54896 | 36063 ft | 449 kts | 227° |
| 2026-05-06 07:46 | 16.41888 | -157.59427 | 36065 ft | 449 kts | 227° |
| 2026-05-06 07:46 | 16.37409 | -157.63957 | 36065 ft | 449 kts | 227° |
| 2026-05-06 07:47 | 16.32930 | -157.68485 | 36063 ft | 449 kts | 227° |
| 2026-05-06 07:47 | 16.28448 | -157.73012 | 36059 ft | 449 kts | 227° |
| 2026-05-06 07:48 | 16.23963 | -157.77539 | 36058 ft | 449 kts | 227° |
| 2026-05-06 07:48 | 16.19481 | -157.82062 | 36066 ft | 449 kts | 227° |
| 2026-05-06 07:49 | 16.14996 | -157.86582 | 36063 ft | 449 kts | 227° |
| 2026-05-06 07:49 | 16.10509 | -157.91101 | 36062 ft | 449 kts | 226° |
| 2026-05-06 07:50 | 16.06049 | -157.95591 | 36064 ft | 449 kts | 226° |
| 2026-05-06 07:50 | 16.01565 | -158.00102 | 36061 ft | 449 kts | 227° |
| 2026-05-06 07:51 | 15.97071 | -158.04621 | 36064 ft | 449 kts | 226° |
| 2026-05-06 07:51 | 15.92583 | -158.09135 | 36058 ft | 449 kts | 226° |
| 2026-05-06 07:52 | 15.88092 | -158.13643 | 36058 ft | 449 kts | 226° |
| 2026-05-06 07:52 | 15.83598 | -158.18151 | 36053 ft | 449 kts | 226° |
| 2026-05-06 07:53 | 15.79104 | -158.22657 | 36056 ft | 449 kts | 226° |
| 2026-05-06 07:53 | 15.74608 | -158.27165 | 36056 ft | 449 kts | 226° |
| 2026-05-06 07:54 | 15.70105 | -158.31673 | 36057 ft | 450 kts | 226° |
| 2026-05-06 07:54 | 15.65598 | -158.36182 | 36059 ft | 450 kts | 226° |
| 2026-05-06 07:55 | 15.61092 | -158.40690 | 36054 ft | 450 kts | 226° |
| 2026-05-06 07:55 | 15.56587 | -158.45195 | 36050 ft | 450 kts | 226° |
| 2026-05-06 07:56 | 15.52837 | -158.48940 | 36055 ft | 451 kts | 226° |
| 2026-05-06 07:56 | 15.48316 | -158.53453 | 36048 ft | 451 kts | 226° |
| 2026-05-06 07:57 | 15.43062 | -158.58695 | 36056 ft | 451 kts | 226° |
| 2026-05-06 07:57 | 15.39269 | -158.62477 | 36060 ft | 451 kts | 226° |
| 2026-05-06 07:58 | 15.34736 | -158.66991 | 36055 ft | 453 kts | 226° |
| 2026-05-06 07:58 | 15.30198 | -158.71510 | 36056 ft | 452 kts | 226° |
| 2026-05-06 07:59 | 15.25656 | -158.76029 | 36048 ft | 453 kts | 226° |
| 2026-05-06 07:59 | 15.21115 | -158.80547 | 36048 ft | 453 kts | 226° |
| 2026-05-06 08:00 | 15.16567 | -158.85068 | 36051 ft | 453 kts | 226° |
| 2026-05-06 08:00 | 15.12016 | -158.89591 | 36043 ft | 454 kts | 226° |
| 2026-05-06 08:01 | 15.07464 | -158.94107 | 36045 ft | 454 kts | 226° |
| 2026-05-06 08:01 | 15.02908 | -158.98627 | 36055 ft | 454 kts | 226° |
| 2026-05-06 08:02 | 14.98350 | -159.03145 | 36066 ft | 454 kts | 226° |
| 2026-05-06 08:02 | 14.93817 | -159.07638 | 36051 ft | 455 kts | 226° |
| 2026-05-06 08:03 | 14.89249 | -159.12161 | 36059 ft | 455 kts | 226° |
| 2026-05-06 08:03 | 14.84683 | -159.16678 | 36051 ft | 454 kts | 226° |
| 2026-05-06 08:04 | 14.80114 | -159.21196 | 36057 ft | 455 kts | 226° |
| 2026-05-06 08:04 | 14.75538 | -159.25723 | 36061 ft | 455 kts | 226° |
| 2026-05-06 08:05 | 14.70960 | -159.30245 | 36050 ft | 455 kts | 226° |
| 2026-05-06 08:05 | 14.66376 | -159.34769 | 36047 ft | 456 kts | 226° |
| 2026-05-06 08:06 | 14.61887 | -159.39197 | 36051 ft | 456 kts | 226° |
| 2026-05-06 08:06 | 14.57296 | -159.43724 | 36038 ft | 456 kts | 226° |
| 2026-05-06 08:07 | 14.52710 | -159.48237 | 36052 ft | 455 kts | 226° |
| 2026-05-06 08:07 | 14.48124 | -159.52753 | 36035 ft | 455 kts | 226° |
| 2026-05-06 08:08 | 14.43540 | -159.57269 | 36036 ft | 456 kts | 226° |
| 2026-05-06 08:08 | 14.38950 | -159.61786 | 36036 ft | 456 kts | 226° |
| 2026-05-06 08:09 | 14.34388 | -159.66274 | 36035 ft | 456 kts | 226° |
| 2026-05-06 08:09 | 14.29794 | -159.70784 | 36036 ft | 456 kts | 226° |
| 2026-05-06 08:10 | 14.25195 | -159.75299 | 36037 ft | 456 kts | 226° |
| 2026-05-06 08:10 | 14.20597 | -159.79812 | 36036 ft | 457 kts | 226° |
| 2026-05-06 08:11 | 14.15994 | -159.84330 | 36036 ft | 456 kts | 226° |
| 2026-05-06 08:11 | 14.11391 | -159.88842 | 36036 ft | 457 kts | 226° |
| 2026-05-06 08:12 | 14.06787 | -159.93351 | 36033 ft | 457 kts | 226° |
| 2026-05-06 08:12 | 14.02180 | -159.97860 | 36033 ft | 457 kts | 226° |
| 2026-05-06 08:13 | 13.97589 | -160.02388 | 36026 ft | 457 kts | 226° |
| 2026-05-06 08:13 | 13.93106 | -160.07003 | 36026 ft | 456 kts | 227° |
| 2026-05-06 08:14 | 13.88635 | -160.11646 | 36027 ft | 456 kts | 227° |
| 2026-05-06 08:14 | 13.84153 | -160.16276 | 36026 ft | 457 kts | 227° |
| 2026-05-06 08:15 | 13.79660 | -160.20894 | 36026 ft | 457 kts | 227° |
| 2026-05-06 08:15 | 13.75157 | -160.25508 | 36028 ft | 457 kts | 227° |
| 2026-05-06 08:16 | 13.70645 | -160.30129 | 36026 ft | 458 kts | 227° |
| 2026-05-06 08:16 | 13.66137 | -160.34749 | 36026 ft | 458 kts | 227° |
| 2026-05-06 08:17 | 13.61624 | -160.39374 | 36027 ft | 458 kts | 227° |
| 2026-05-06 08:17 | 13.57104 | -160.43997 | 36026 ft | 459 kts | 227° |
| 2026-05-06 08:18 | 13.52577 | -160.48627 | 36017 ft | 460 kts | 227° |
| 2026-05-06 08:18 | 13.48045 | -160.53256 | 36018 ft | 459 kts | 227° |
| 2026-05-06 08:19 | 13.43512 | -160.57882 | 36018 ft | 459 kts | 227° |
| 2026-05-06 08:19 | 13.39003 | -160.62487 | 36017 ft | 460 kts | 227° |
| 2026-05-06 08:20 | 13.34460 | -160.67127 | 36018 ft | 461 kts | 227° |
| 2026-05-06 08:20 | 13.29907 | -160.71771 | 36018 ft | 462 kts | 227° |
| 2026-05-06 08:21 | 13.25347 | -160.76419 | 36018 ft | 462 kts | 227° |
| 2026-05-06 08:21 | 13.20784 | -160.81066 | 36017 ft | 462 kts | 227° |
| 2026-05-06 08:22 | 13.16213 | -160.85720 | 36017 ft | 463 kts | 227° |
| 2026-05-06 08:22 | 13.11640 | -160.90375 | 36017 ft | 463 kts | 227° |
| 2026-05-06 08:23 | 13.07060 | -160.95032 | 36009 ft | 464 kts | 227° |
| 2026-05-06 08:23 | 13.02475 | -160.99692 | 36006 ft | 464 kts | 227° |
| 2026-05-06 08:24 | 12.97886 | -161.04353 | 36007 ft | 465 kts | 227° |
| 2026-05-06 08:24 | 12.93294 | -161.09015 | 36006 ft | 464 kts | 227° |
| 2026-05-06 08:25 | 12.88694 | -161.13680 | 36006 ft | 465 kts | 227° |
| 2026-05-06 08:25 | 12.84093 | -161.18343 | 36006 ft | 465 kts | 227° |
| 2026-05-06 08:26 | 12.79499 | -161.23007 | 36007 ft | 465 kts | 227° |
| 2026-05-06 08:26 | 12.74897 | -161.27671 | 36011 ft | 465 kts | 227° |
| 2026-05-06 08:27 | 12.70290 | -161.32336 | 36008 ft | 466 kts | 227° |
| 2026-05-06 08:27 | 12.65709 | -161.36971 | 36008 ft | 466 kts | 227° |
| 2026-05-06 08:28 | 12.61064 | -161.41669 | 36008 ft | 467 kts | 227° |
| 2026-05-06 08:28 | 12.56475 | -161.46310 | 36002 ft | 467 kts | 227° |
| 2026-05-06 08:29 | 12.51850 | -161.50981 | 35998 ft | 468 kts | 227° |
| 2026-05-06 08:29 | 12.47215 | -161.55661 | 36002 ft | 468 kts | 227° |
| 2026-05-06 08:30 | 12.42580 | -161.60338 | 36000 ft | 468 kts | 227° |
| 2026-05-06 08:30 | 12.37941 | -161.65018 | 36002 ft | 468 kts | 227° |
| 2026-05-06 08:31 | 12.33304 | -161.69694 | 35996 ft | 468 kts | 227° |
| 2026-05-06 08:31 | 12.28665 | -161.74370 | 36002 ft | 468 kts | 227° |
| 2026-05-06 08:32 | 12.24019 | -161.79049 | 36007 ft | 469 kts | 227° |
| 2026-05-06 08:32 | 12.19369 | -161.83733 | 36008 ft | 469 kts | 227° |
| 2026-05-06 08:33 | 12.14714 | -161.88413 | 36008 ft | 469 kts | 226° |
| 2026-05-06 08:33 | 12.10062 | -161.93090 | 36009 ft | 469 kts | 226° |
| 2026-05-06 08:34 | 12.03084 | -162.00105 | 36007 ft | 469 kts | 226° |
| 2026-05-06 08:35 | 11.98429 | -162.04780 | 36011 ft | 469 kts | 226° |
| 2026-05-06 08:35 | 11.93775 | -162.09450 | 36005 ft | 469 kts | 226° |
| 2026-05-06 08:36 | 11.89123 | -162.14120 | 36005 ft | 469 kts | 226° |
| 2026-05-06 08:36 | 11.84521 | -162.18736 | 36009 ft | 469 kts | 227° |
| 2026-05-06 08:37 | 11.79864 | -162.23405 | 35996 ft | 470 kts | 227° |
| 2026-05-06 08:37 | 11.75198 | -162.28081 | 36000 ft | 470 kts | 226° |
| 2026-05-06 08:38 | 11.70525 | -162.32754 | 36002 ft | 470 kts | 226° |
| 2026-05-06 08:38 | 11.65848 | -162.37432 | 35999 ft | 471 kts | 227° |
| 2026-05-06 08:39 | 11.61171 | -162.42115 | 35998 ft | 472 kts | 227° |
| 2026-05-06 08:39 | 11.56492 | -162.46795 | 35995 ft | 472 kts | 227° |
| 2026-05-06 08:40 | 11.51786 | -162.51496 | 36003 ft | 473 kts | 227° |
| 2026-05-06 08:40 | 11.47081 | -162.56194 | 36003 ft | 474 kts | 227° |
| 2026-05-06 08:41 | 11.42375 | -162.60890 | 35998 ft | 474 kts | 227° |
| 2026-05-06 08:41 | 11.37664 | -162.65593 | 36000 ft | 474 kts | 227° |
| 2026-05-06 08:42 | 11.32977 | -162.70273 | 35998 ft | 475 kts | 227° |
| 2026-05-06 08:42 | 11.28248 | -162.74985 | 35995 ft | 476 kts | 227° |
| 2026-05-06 08:43 | 11.23480 | -162.79733 | 35991 ft | 476 kts | 227° |
| 2026-05-06 08:43 | 11.18775 | -162.84419 | 35987 ft | 477 kts | 227° |
| 2026-05-06 08:44 | 11.14023 | -162.89148 | 35989 ft | 478 kts | 227° |
| 2026-05-06 08:44 | 11.09269 | -162.93878 | 35992 ft | 478 kts | 227° |
| 2026-05-06 08:45 | 11.04514 | -162.98607 | 35985 ft | 478 kts | 227° |
| 2026-05-06 08:45 | 11.00560 | -163.02536 | 35987 ft | 478 kts | 227° |
| 2026-05-06 08:46 | 10.95801 | -163.07263 | 35986 ft | 478 kts | 227° |
| 2026-05-06 08:46 | 10.91033 | -163.11996 | 35987 ft | 479 kts | 227° |
| 2026-05-06 08:47 | 10.86267 | -163.16730 | 35988 ft | 480 kts | 227° |
| 2026-05-06 08:47 | 10.81489 | -163.21470 | 35995 ft | 480 kts | 227° |
| 2026-05-06 08:48 | 10.76705 | -163.26214 | 35991 ft | 481 kts | 227° |
| 2026-05-06 08:48 | 10.71917 | -163.30962 | 35993 ft | 481 kts | 227° |
| 2026-05-06 08:49 | 10.67123 | -163.35710 | 35981 ft | 481 kts | 227° |
| 2026-05-06 08:49 | 10.62324 | -163.40463 | 35980 ft | 482 kts | 227° |
| 2026-05-06 08:50 | 10.57522 | -163.45216 | 35980 ft | 482 kts | 227° |
| 2026-05-06 08:50 | 10.52712 | -163.49971 | 35978 ft | 482 kts | 227° |
| 2026-05-06 08:51 | 10.47904 | -163.54726 | 35980 ft | 483 kts | 227° |
| 2026-05-06 08:51 | 10.43086 | -163.59488 | 35980 ft | 483 kts | 227° |
| 2026-05-06 08:52 | 10.38261 | -163.64256 | 35983 ft | 484 kts | 227° |
| 2026-05-06 08:52 | 10.33435 | -163.69026 | 35980 ft | 485 kts | 227° |
| 2026-05-06 08:53 | 10.28637 | -163.73760 | 35980 ft | 484 kts | 227° |
| 2026-05-06 08:53 | 10.23763 | -163.78570 | 35980 ft | 486 kts | 227° |
| 2026-05-06 08:54 | 10.18915 | -163.83353 | 35984 ft | 487 kts | 227° |
| 2026-05-06 08:54 | 10.14064 | -163.88137 | 35980 ft | 486 kts | 227° |
| 2026-05-06 08:55 | 10.09211 | -163.92918 | 35979 ft | 486 kts | 227° |
| 2026-05-06 08:55 | 10.04388 | -163.97667 | 35979 ft | 486 kts | 227° |
| 2026-05-06 08:56 | 9.99533 | -164.02444 | 35984 ft | 486 kts | 227° |
| 2026-05-06 08:56 | 9.94677 | -164.07227 | 35973 ft | 486 kts | 227° |
| 2026-05-06 08:57 | 9.89822 | -164.12002 | 35971 ft | 486 kts | 227° |
| 2026-05-06 08:57 | 9.84960 | -164.16780 | 35971 ft | 486 kts | 227° |
| 2026-05-06 08:58 | 9.80104 | -164.21552 | 35971 ft | 486 kts | 227° |
| 2026-05-06 08:58 | 9.75244 | -164.26330 | 35972 ft | 487 kts | 227° |
| 2026-05-06 08:59 | 9.70383 | -164.31105 | 35971 ft | 487 kts | 227° |
| 2026-05-06 08:59 | 9.65526 | -164.35869 | 35973 ft | 487 kts | 227° |
| 2026-05-06 09:00 | 9.60651 | -164.40647 | 35971 ft | 487 kts | 227° |
| 2026-05-06 09:00 | 9.55785 | -164.45420 | 35971 ft | 486 kts | 227° |
| 2026-05-06 09:01 | 9.50920 | -164.50191 | 35971 ft | 487 kts | 227° |
| 2026-05-06 09:01 | 9.46047 | -164.54967 | 35971 ft | 488 kts | 227° |
| 2026-05-06 09:02 | 9.41171 | -164.59743 | 35971 ft | 488 kts | 227° |
| 2026-05-06 09:02 | 9.36291 | -164.64520 | 35970 ft | 488 kts | 227° |
| 2026-05-06 09:03 | 9.31408 | -164.69300 | 35971 ft | 488 kts | 227° |
| 2026-05-06 09:03 | 9.26529 | -164.74072 | 35971 ft | 488 kts | 227° |
| 2026-05-06 09:04 | 9.21648 | -164.78845 | 35971 ft | 488 kts | 227° |
| 2026-05-06 09:04 | 9.16762 | -164.83621 | 35971 ft | 488 kts | 227° |
| 2026-05-06 09:05 | 9.11873 | -164.88398 | 35971 ft | 489 kts | 227° |
| 2026-05-06 09:05 | 9.06980 | -164.93180 | 35971 ft | 489 kts | 227° |
| 2026-05-06 09:06 | 9.02082 | -164.97964 | 35971 ft | 489 kts | 227° |
| 2026-05-06 09:06 | 8.97268 | -165.02698 | 35969 ft | 490 kts | 228° |
| 2026-05-06 09:07 | 8.92542 | -165.07511 | 35962 ft | 489 kts | 229° |
| 2026-05-06 09:07 | 8.87766 | -165.12406 | 35962 ft | 489 kts | 229° |
| 2026-05-06 09:08 | 8.82977 | -165.17291 | 35962 ft | 489 kts | 229° |
| 2026-05-06 09:08 | 8.78171 | -165.22169 | 35962 ft | 489 kts | 228° |
| 2026-05-06 09:09 | 8.73366 | -165.27046 | 35962 ft | 490 kts | 228° |
| 2026-05-06 09:09 | 8.68565 | -165.31918 | 35961 ft | 490 kts | 228° |
| 2026-05-06 09:10 | 8.63747 | -165.36804 | 35961 ft | 490 kts | 228° |
| 2026-05-06 09:10 | 8.58933 | -165.41684 | 35962 ft | 490 kts | 228° |
| 2026-05-06 09:11 | 8.54123 | -165.46557 | 35962 ft | 490 kts | 228° |
| 2026-05-06 09:11 | 8.49299 | -165.51444 | 35962 ft | 491 kts | 228° |
| 2026-05-06 09:12 | 8.44469 | -165.56334 | 35962 ft | 491 kts | 228° |
| 2026-05-06 09:12 | 8.39645 | -165.61215 | 35962 ft | 491 kts | 228° |
| 2026-05-06 09:13 | 8.34819 | -165.66098 | 35962 ft | 491 kts | 228° |
| 2026-05-06 09:13 | 8.29990 | -165.70984 | 35962 ft | 492 kts | 228° |
| 2026-05-06 09:14 | 8.25152 | -165.75875 | 35961 ft | 492 kts | 228° |
| 2026-05-06 09:14 | 8.20316 | -165.80762 | 35962 ft | 492 kts | 228° |
| 2026-05-06 09:15 | 8.15474 | -165.85655 | 35962 ft | 493 kts | 228° |
| 2026-05-06 09:15 | 8.10665 | -165.90517 | 35962 ft | 493 kts | 228° |
| 2026-05-06 09:16 | 8.05788 | -165.95440 | 35961 ft | 493 kts | 228° |
| 2026-05-06 09:16 | 8.00943 | -166.00329 | 35962 ft | 492 kts | 228° |
| 2026-05-06 09:17 | 7.96132 | -166.05179 | 35962 ft | 492 kts | 228° |
| 2026-05-06 09:17 | 7.91292 | -166.10059 | 35962 ft | 492 kts | 228° |
| 2026-05-06 09:18 | 7.86450 | -166.14941 | 35962 ft | 492 kts | 228° |
| 2026-05-06 09:18 | 7.81612 | -166.19819 | 35962 ft | 492 kts | 228° |
| 2026-05-06 09:19 | 7.76773 | -166.24696 | 35962 ft | 492 kts | 228° |
| 2026-05-06 09:19 | 7.71925 | -166.29575 | 35961 ft | 492 kts | 228° |
| 2026-05-06 09:20 | 7.67082 | -166.34450 | 35962 ft | 492 kts | 228° |
| 2026-05-06 09:20 | 7.62232 | -166.39333 | 35962 ft | 493 kts | 228° |
| 2026-05-06 09:21 | 7.57380 | -166.44215 | 35962 ft | 493 kts | 228° |
| 2026-05-06 09:21 | 7.52526 | -166.49097 | 35962 ft | 493 kts | 228° |
| 2026-05-06 09:22 | 7.47677 | -166.53972 | 35961 ft | 493 kts | 227° |
| 2026-05-06 09:22 | 7.42827 | -166.58847 | 35962 ft | 493 kts | 227° |
| 2026-05-06 09:23 | 7.37972 | -166.63725 | 35962 ft | 493 kts | 227° |
| 2026-05-06 09:23 | 7.33118 | -166.68603 | 35962 ft | 493 kts | 227° |
| 2026-05-06 09:24 | 7.28262 | -166.73479 | 35962 ft | 493 kts | 227° |
| 2026-05-06 09:24 | 7.23398 | -166.78360 | 35962 ft | 493 kts | 227° |
| 2026-05-06 09:25 | 7.18534 | -166.83238 | 35962 ft | 494 kts | 227° |
| 2026-05-06 09:25 | 7.13703 | -166.88083 | 35962 ft | 493 kts | 227° |
| 2026-05-06 09:26 | 7.08841 | -166.92959 | 35962 ft | 493 kts | 227° |
| 2026-05-06 09:26 | 7.03977 | -166.97834 | 35962 ft | 493 kts | 227° |
| 2026-05-06 09:27 | 6.99114 | -167.02713 | 35962 ft | 493 kts | 227° |
| 2026-05-06 09:27 | 6.94252 | -167.07584 | 35961 ft | 493 kts | 227° |
| 2026-05-06 09:28 | 6.89385 | -167.12458 | 35962 ft | 494 kts | 227° |
| 2026-05-06 09:28 | 6.84519 | -167.17328 | 35962 ft | 493 kts | 227° |
| 2026-05-06 09:29 | 6.79648 | -167.22203 | 35962 ft | 494 kts | 227° |
| 2026-05-06 09:29 | 6.74782 | -167.27073 | 35962 ft | 494 kts | 227° |
| 2026-05-06 09:30 | 6.69912 | -167.31947 | 35962 ft | 494 kts | 227° |
| 2026-05-06 09:30 | 6.65043 | -167.36814 | 35962 ft | 494 kts | 226° |
| 2026-05-06 09:31 | 6.60169 | -167.41685 | 35962 ft | 494 kts | 226° |
| 2026-05-06 09:31 | 6.55298 | -167.46553 | 35962 ft | 494 kts | 226° |
| 2026-05-06 09:32 | 6.51251 | -167.50596 | 35962 ft | 494 kts | 226° |
| 2026-05-06 09:32 | 6.46375 | -167.55466 | 35962 ft | 494 kts | 226° |
| 2026-05-06 09:33 | 6.41502 | -167.60334 | 35962 ft | 494 kts | 226° |
| 2026-05-06 09:33 | 6.36631 | -167.65199 | 35962 ft | 493 kts | 226° |
| 2026-05-06 09:34 | 6.31758 | -167.70063 | 35962 ft | 494 kts | 226° |
| 2026-05-06 09:34 | 6.26883 | -167.74927 | 35962 ft | 494 kts | 226° |
| 2026-05-06 09:35 | 6.22004 | -167.79794 | 35962 ft | 494 kts | 226° |
| 2026-05-06 09:35 | 6.17127 | -167.84654 | 35961 ft | 494 kts | 226° |
| 2026-05-06 09:36 | 6.12249 | -167.89519 | 35962 ft | 494 kts | 226° |
| 2026-05-06 09:36 | 6.07430 | -167.94320 | 35962 ft | 494 kts | 226° |
| 2026-05-06 09:37 | 6.02553 | -167.99180 | 35962 ft | 494 kts | 226° |
| 2026-05-06 09:37 | 5.97674 | -168.04040 | 35962 ft | 493 kts | 226° |
| 2026-05-06 09:38 | 5.92804 | -168.08894 | 35962 ft | 493 kts | 226° |
| 2026-05-06 09:38 | 5.87927 | -168.13748 | 35962 ft | 494 kts | 226° |
| 2026-05-06 09:39 | 5.83051 | -168.18603 | 35961 ft | 494 kts | 226° |
| 2026-05-06 09:39 | 5.78171 | -168.23458 | 35962 ft | 493 kts | 226° |
| 2026-05-06 09:40 | 5.73296 | -168.28307 | 35962 ft | 493 kts | 226° |
| 2026-05-06 09:40 | 5.65980 | -168.35582 | 35962 ft | 494 kts | 226° |
| 2026-05-06 09:41 | 5.61103 | -168.40431 | 35962 ft | 493 kts | 226° |
| 2026-05-06 09:41 | 5.56224 | -168.45281 | 35962 ft | 494 kts | 226° |
| 2026-05-06 09:42 | 5.51344 | -168.50130 | 35962 ft | 494 kts | 226° |
| 2026-05-06 09:42 | 5.46465 | -168.54977 | 35962 ft | 494 kts | 226° |
| 2026-05-06 09:43 | 5.41582 | -168.59827 | 35962 ft | 494 kts | 226° |
| 2026-05-06 09:43 | 5.36704 | -168.64672 | 35962 ft | 493 kts | 226° |
| 2026-05-06 09:44 | 5.31826 | -168.69514 | 35962 ft | 493 kts | 226° |
| 2026-05-06 09:44 | 5.26949 | -168.74354 | 35962 ft | 493 kts | 226° |
| 2026-05-06 09:45 | 5.22077 | -168.79189 | 35962 ft | 493 kts | 226° |
| 2026-05-06 09:45 | 5.17198 | -168.84029 | 35962 ft | 493 kts | 226° |
| 2026-05-06 09:46 | 5.12350 | -168.88838 | 35962 ft | 493 kts | 226° |
| 2026-05-06 09:46 | 5.07471 | -168.93673 | 35962 ft | 493 kts | 226° |
| 2026-05-06 09:47 | 5.02595 | -168.98509 | 35962 ft | 493 kts | 225° |
| 2026-05-06 09:47 | 4.97713 | -169.03349 | 35962 ft | 493 kts | 225° |
| 2026-05-06 09:48 | 4.92832 | -169.08185 | 35961 ft | 493 kts | 225° |
| 2026-05-06 09:48 | 4.87952 | -169.13020 | 35962 ft | 493 kts | 225° |
| 2026-05-06 09:49 | 4.83069 | -169.17857 | 35962 ft | 493 kts | 225° |
| 2026-05-06 09:49 | 4.78191 | -169.22693 | 35962 ft | 493 kts | 225° |
| 2026-05-06 09:50 | 4.73306 | -169.27527 | 35962 ft | 494 kts | 225° |
| 2026-05-06 09:50 | 4.68424 | -169.32362 | 35962 ft | 493 kts | 225° |
| 2026-05-06 09:51 | 4.63543 | -169.37194 | 35962 ft | 493 kts | 225° |
| 2026-05-06 09:51 | 4.58657 | -169.42025 | 35962 ft | 493 kts | 225° |
| 2026-05-06 09:52 | 4.53775 | -169.46853 | 35961 ft | 493 kts | 225° |
| 2026-05-06 09:52 | 4.48891 | -169.51684 | 35953 ft | 493 kts | 225° |
| 2026-05-06 09:53 | 4.44007 | -169.56515 | 35952 ft | 494 kts | 225° |
| 2026-05-06 09:53 | 4.39147 | -169.61315 | 35952 ft | 494 kts | 225° |
| 2026-05-06 09:54 | 4.34259 | -169.66147 | 35953 ft | 494 kts | 225° |
| 2026-05-06 09:54 | 4.29374 | -169.70977 | 35952 ft | 493 kts | 225° |
| 2026-05-06 09:55 | 4.24487 | -169.75806 | 35952 ft | 493 kts | 225° |
| 2026-05-06 09:55 | 4.19599 | -169.80634 | 35953 ft | 493 kts | 225° |
| 2026-05-06 09:56 | 4.14711 | -169.85462 | 35952 ft | 493 kts | 225° |
| 2026-05-06 09:56 | 4.09826 | -169.90288 | 35953 ft | 493 kts | 225° |
| 2026-05-06 09:57 | 4.04936 | -169.95117 | 35953 ft | 493 kts | 225° |
| 2026-05-06 09:57 | 4.00048 | -169.99945 | 35982 ft | 495 kts | 225° |
| 2026-05-06 09:58 | 3.97599 | -170.02377 | 36150 ft | 495 kts | 225° |
| 2026-05-06 09:58 | 3.95166 | -170.04818 | 36349 ft | 495 kts | 226° |
| 2026-05-06 09:58 | 3.92743 | -170.07262 | 36507 ft | 495 kts | 226° |
| 2026-05-06 09:58 | 3.90318 | -170.09710 | 36649 ft | 495 kts | 226° |
| 2026-05-06 09:59 | 3.87889 | -170.12157 | 36840 ft | 495 kts | 226° |
| 2026-05-06 09:59 | 3.85468 | -170.14594 | 37054 ft | 493 kts | 226° |
| 2026-05-06 09:59 | 3.83051 | -170.17024 | 37264 ft | 492 kts | 226° |
| 2026-05-06 09:59 | 3.80638 | -170.19449 | 37475 ft | 490 kts | 226° |
| 2026-05-06 10:00 | 3.78237 | -170.21862 | 37665 ft | 489 kts | 226° |
| 2026-05-06 10:00 | 3.75839 | -170.24272 | 37841 ft | 488 kts | 226° |
| 2026-05-06 10:00 | 3.71040 | -170.29095 | 37959 ft | 491 kts | 226° |
| 2026-05-06 10:01 | 3.66237 | -170.33916 | 37948 ft | 492 kts | 226° |
| 2026-05-06 10:01 | 3.61406 | -170.38764 | 37956 ft | 492 kts | 226° |
| 2026-05-06 10:02 | 3.56570 | -170.43618 | 37949 ft | 492 kts | 226° |
| 2026-05-06 10:02 | 3.51731 | -170.48473 | 37953 ft | 492 kts | 226° |
| 2026-05-06 10:03 | 3.46893 | -170.53330 | 37947 ft | 493 kts | 226° |
| 2026-05-06 10:03 | 3.42053 | -170.58186 | 37950 ft | 493 kts | 226° |
| 2026-05-06 10:04 | 3.37210 | -170.63045 | 37958 ft | 493 kts | 225° |
| 2026-05-06 10:04 | 3.32369 | -170.67908 | 37948 ft | 493 kts | 225° |
| 2026-05-06 10:05 | 3.27487 | -170.72757 | 37946 ft | 495 kts | 226° |
| 2026-05-06 10:05 | 3.22650 | -170.77641 | 37950 ft | 495 kts | 225° |
| 2026-05-06 10:06 | 3.17779 | -170.82536 | 37952 ft | 495 kts | 225° |
| 2026-05-06 10:06 | 3.12908 | -170.87401 | 37953 ft | 494 kts | 226° |
| 2026-05-06 10:07 | 3.08072 | -170.92271 | 37963 ft | 494 kts | 226° |
| 2026-05-06 10:07 | 3.03208 | -170.97114 | 37950 ft | 493 kts | 225° |
| 2026-05-06 10:08 | 2.98373 | -171.01976 | 37950 ft | 494 kts | 225° |
| 2026-05-06 10:08 | 2.93533 | -171.06814 | 37953 ft | 493 kts | 225° |
| 2026-05-06 10:09 | 2.88672 | -171.11690 | 37954 ft | 497 kts | 226° |
| 2026-05-06 10:09 | 2.83820 | -171.16557 | 37953 ft | 494 kts | 226° |
| 2026-05-06 10:10 | 2.78987 | -171.21404 | 37961 ft | 495 kts | 226° |
| 2026-05-06 10:10 | 2.74120 | -171.26280 | 37961 ft | 496 kts | 226° |
| 2026-05-06 10:11 | 2.69249 | -171.31161 | 37947 ft | 493 kts | 226° |
| 2026-05-06 10:11 | 2.64394 | -171.36012 | 37950 ft | 494 kts | 226° |
| 2026-05-06 10:12 | 2.59529 | -171.40906 | 37954 ft | 497 kts | 225° |
| 2026-05-06 10:12 | 2.54654 | -171.45794 | 37948 ft | 494 kts | 226° |
| 2026-05-06 10:13 | 2.49790 | -171.50645 | 37956 ft | 495 kts | 225° |
| 2026-05-06 10:13 | 2.44922 | -171.55502 | 37947 ft | 496 kts | 226° |
| 2026-05-06 10:14 | 2.40030 | -171.60402 | 37958 ft | 498 kts | 226° |
| 2026-05-06 10:14 | 2.35141 | -171.65293 | 37954 ft | 499 kts | 226° |
| 2026-05-06 10:15 | 2.30266 | -171.70184 | 37947 ft | 495 kts | 226° |
| 2026-05-06 10:15 | 2.25380 | -171.75089 | 37947 ft | 499 kts | 226° |
| 2026-05-06 10:16 | 2.20491 | -171.79969 | 37961 ft | 495 kts | 226° |
| 2026-05-06 10:16 | 2.15616 | -171.84841 | 37955 ft | 496 kts | 226° |
| 2026-05-06 10:17 | 2.10761 | -171.89717 | 37966 ft | 497 kts | 226° |
| 2026-05-06 10:17 | 2.05863 | -171.94596 | 37951 ft | 495 kts | 226° |
| 2026-05-06 10:18 | 2.00992 | -171.99458 | 37950 ft | 493 kts | 226° |
| 2026-05-06 10:18 | 1.96094 | -172.04342 | 37916 ft | 500 kts | 226° |
| 2026-05-06 10:19 | 1.91208 | -172.09214 | 37906 ft | 497 kts | 226° |
| 2026-05-06 10:19 | 1.86317 | -172.14107 | 37903 ft | 497 kts | 226° |
| 2026-05-06 10:20 | 1.81423 | -172.19023 | 37912 ft | 500 kts | 226° |
| 2026-05-06 10:20 | 1.76528 | -172.23902 | 37909 ft | 495 kts | 226° |
| 2026-05-06 10:21 | 1.71636 | -172.28770 | 37904 ft | 496 kts | 226° |
| 2026-05-06 10:21 | 1.67570 | -172.32824 | 37904 ft | 498 kts | 226° |
| 2026-05-06 10:22 | 1.62680 | -172.37710 | 37906 ft | 496 kts | 226° |
| 2026-05-06 10:22 | 1.57799 | -172.42616 | 37905 ft | 498 kts | 226° |
| 2026-05-06 10:23 | 1.52924 | -172.47499 | 37909 ft | 497 kts | 226° |
| 2026-05-06 10:23 | 1.48054 | -172.52359 | 37906 ft | 496 kts | 227° |
| 2026-05-06 10:24 | 1.43168 | -172.57255 | 37904 ft | 496 kts | 226° |
| 2026-05-06 10:24 | 1.38295 | -172.62106 | 37907 ft | 494 kts | 226° |
| 2026-05-06 10:25 | 1.33445 | -172.66931 | 37905 ft | 495 kts | 226° |
| 2026-05-06 10:25 | 1.28531 | -172.71842 | 37907 ft | 494 kts | 227° |
| 2026-05-06 10:26 | 1.23694 | -172.76694 | 37908 ft | 494 kts | 226° |
| 2026-05-06 10:26 | 1.18833 | -172.81560 | 37907 ft | 494 kts | 227° |
| 2026-05-06 10:27 | 1.13985 | -172.86412 | 37908 ft | 496 kts | 226° |
| 2026-05-06 10:27 | 1.09080 | -172.91270 | 37914 ft | 499 kts | 226° |
| 2026-05-06 10:28 | 1.04175 | -172.96157 | 37904 ft | 496 kts | 226° |
| 2026-05-06 10:28 | 0.99323 | -173.01014 | 37908 ft | 494 kts | 226° |
| 2026-05-06 10:29 | 0.94483 | -173.05859 | 37907 ft | 492 kts | 227° |
| 2026-05-06 10:29 | 0.89655 | -173.10703 | 37908 ft | 490 kts | 226° |
| 2026-05-06 10:30 | 0.84829 | -173.15518 | 37909 ft | 494 kts | 227° |
| 2026-05-06 10:30 | 0.79976 | -173.20407 | 37907 ft | 494 kts | 226° |
| 2026-05-06 10:31 | 0.75102 | -173.25244 | 37907 ft | 494 kts | 226° |
| 2026-05-06 10:31 | 0.70223 | -173.30086 | 37907 ft | 495 kts | 226° |
| 2026-05-06 10:32 | 0.65353 | -173.34940 | 37906 ft | 495 kts | 226° |
| 2026-05-06 10:32 | 0.60486 | -173.39800 | 37905 ft | 495 kts | 226° |
| 2026-05-06 10:33 | 0.55621 | -173.44659 | 37907 ft | 495 kts | 226° |
| 2026-05-06 10:33 | 0.50752 | -173.49522 | 37906 ft | 495 kts | 226° |
| 2026-05-06 10:34 | 0.45885 | -173.54380 | 37906 ft | 495 kts | 226° |
| 2026-05-06 10:34 | 0.41016 | -173.59238 | 37906 ft | 495 kts | 226° |
| 2026-05-06 10:35 | 0.36142 | -173.64100 | 37906 ft | 495 kts | 226° |
| 2026-05-06 10:35 | 0.31272 | -173.68960 | 37905 ft | 495 kts | 226° |
| 2026-05-06 10:36 | 0.26405 | -173.73819 | 37906 ft | 494 kts | 226° |
| 2026-05-06 10:36 | 0.21537 | -173.78678 | 37906 ft | 495 kts | 226° |
| 2026-05-06 10:37 | 0.16666 | -173.83538 | 37906 ft | 495 kts | 226° |
| 2026-05-06 10:37 | 0.11797 | -173.88396 | 37906 ft | 495 kts | 226° |
| 2026-05-06 10:38 | 0.06932 | -173.93253 | 37906 ft | 495 kts | 226° |
| 2026-05-06 10:38 | 0.02061 | -173.98116 | 37906 ft | 495 kts | 226° |
| 2026-05-06 10:39 | -0.02807 | -174.02973 | 37906 ft | 495 kts | 226° |
| 2026-05-06 10:39 | -0.07674 | -174.07832 | 37906 ft | 495 kts | 226° |
| 2026-05-06 10:40 | -0.12512 | -174.12660 | 37907 ft | 495 kts | 226° |
| 2026-05-06 10:40 | -0.17378 | -174.17517 | 37906 ft | 495 kts | 226° |
| 2026-05-06 10:41 | -0.22245 | -174.22374 | 37906 ft | 494 kts | 226° |
| 2026-05-06 10:41 | -0.27111 | -174.27230 | 37906 ft | 494 kts | 226° |
| 2026-05-06 10:42 | -0.31976 | -174.32084 | 37906 ft | 494 kts | 226° |
| 2026-05-06 10:42 | -0.36837 | -174.36936 | 37905 ft | 494 kts | 226° |
| 2026-05-06 10:43 | -0.41702 | -174.41792 | 37907 ft | 494 kts | 226° |
| 2026-05-06 10:44 | -0.48987 | -174.49062 | 37906 ft | 494 kts | 226° |
| 2026-05-06 10:44 | -0.53843 | -174.53909 | 37906 ft | 493 kts | 226° |
| 2026-05-06 10:45 | -0.58700 | -174.58757 | 37905 ft | 493 kts | 226° |
| 2026-05-06 10:45 | -0.63552 | -174.63601 | 37907 ft | 493 kts | 226° |
| 2026-05-06 10:46 | -0.68401 | -174.68442 | 37906 ft | 492 kts | 226° |
| 2026-05-06 10:46 | -0.73245 | -174.73275 | 37906 ft | 492 kts | 226° |
| 2026-05-06 10:47 | -0.78087 | -174.78107 | 37907 ft | 492 kts | 226° |
| 2026-05-06 10:47 | -0.82927 | -174.82942 | 37906 ft | 492 kts | 227° |
| 2026-05-06 10:48 | -0.87767 | -174.87776 | 37907 ft | 492 kts | 227° |
| 2026-05-06 10:48 | -0.92601 | -174.92603 | 37906 ft | 491 kts | 227° |
| 2026-05-06 10:49 | -0.97437 | -174.97432 | 37907 ft | 491 kts | 227° |
| 2026-05-06 10:49 | -1.02267 | -175.02254 | 37907 ft | 491 kts | 227° |
| 2026-05-06 10:50 | -1.07113 | -175.07070 | 37907 ft | 491 kts | 227° |
| 2026-05-06 10:50 | -1.11954 | -175.11873 | 37906 ft | 490 kts | 227° |
| 2026-05-06 10:51 | -1.16786 | -175.16674 | 37905 ft | 490 kts | 227° |
| 2026-05-06 10:51 | -1.21616 | -175.21476 | 37906 ft | 489 kts | 227° |
| 2026-05-06 10:52 | -1.26407 | -175.26242 | 37906 ft | 489 kts | 227° |
| 2026-05-06 10:52 | -1.31224 | -175.31030 | 37906 ft | 488 kts | 227° |
| 2026-05-06 10:53 | -1.36037 | -175.35815 | 37905 ft | 488 kts | 227° |
| 2026-05-06 10:53 | -1.40847 | -175.40595 | 37906 ft | 487 kts | 227° |
| 2026-05-06 10:54 | -1.45656 | -175.45374 | 37906 ft | 487 kts | 227° |
| 2026-05-06 10:54 | -1.50455 | -175.50148 | 37906 ft | 486 kts | 227° |
| 2026-05-06 10:55 | -1.55245 | -175.54914 | 37906 ft | 486 kts | 227° |
| 2026-05-06 10:55 | -1.60034 | -175.59679 | 37906 ft | 485 kts | 227° |
| 2026-05-06 10:56 | -1.64814 | -175.64433 | 37906 ft | 485 kts | 227° |
| 2026-05-06 10:56 | -1.69592 | -175.69184 | 37907 ft | 484 kts | 227° |
| 2026-05-06 10:57 | -1.74365 | -175.73932 | 37907 ft | 483 kts | 227° |
| 2026-05-06 10:57 | -1.79127 | -175.78673 | 37906 ft | 483 kts | 227° |
| 2026-05-06 10:58 | -1.83884 | -175.83410 | 37907 ft | 482 kts | 227° |
| 2026-05-06 10:58 | -1.88641 | -175.88138 | 37907 ft | 482 kts | 227° |
| 2026-05-06 10:59 | -1.93394 | -175.92865 | 37907 ft | 482 kts | 227° |
| 2026-05-06 10:59 | -1.98116 | -175.97562 | 37905 ft | 482 kts | 227° |
| 2026-05-06 11:00 | -2.02868 | -176.02293 | 37907 ft | 482 kts | 227° |
| 2026-05-06 11:00 | -2.07620 | -176.07025 | 37907 ft | 482 kts | 227° |
| 2026-05-06 11:01 | -2.12370 | -176.11755 | 37906 ft | 482 kts | 227° |
| 2026-05-06 11:01 | -2.17123 | -176.16487 | 37905 ft | 482 kts | 227° |
| 2026-05-06 11:02 | -2.21875 | -176.21218 | 37902 ft | 482 kts | 227° |
| 2026-05-06 11:02 | -2.26623 | -176.25945 | 37899 ft | 482 kts | 227° |
| 2026-05-06 11:03 | -2.31380 | -176.30679 | 37900 ft | 482 kts | 227° |
| 2026-05-06 11:03 | -2.36131 | -176.35412 | 37900 ft | 483 kts | 227° |
| 2026-05-06 11:04 | -2.40888 | -176.40150 | 37900 ft | 483 kts | 227° |
| 2026-05-06 11:04 | -2.45651 | -176.44896 | 37896 ft | 484 kts | 227° |
| 2026-05-06 11:05 | -2.50417 | -176.49644 | 37896 ft | 483 kts | 227° |
| 2026-05-06 11:05 | -2.55179 | -176.54391 | 37894 ft | 484 kts | 227° |
| 2026-05-06 11:06 | -2.59945 | -176.59141 | 37893 ft | 484 kts | 227° |
| 2026-05-06 11:06 | -2.64709 | -176.63889 | 37898 ft | 484 kts | 227° |
| 2026-05-06 11:07 | -2.69477 | -176.68639 | 37897 ft | 484 kts | 227° |
| 2026-05-06 11:07 | -2.73446 | -176.72595 | 37894 ft | 484 kts | 227° |
| 2026-05-06 11:08 | -2.78218 | -176.77353 | 37898 ft | 485 kts | 227° |
| 2026-05-06 11:08 | -2.82995 | -176.82116 | 37899 ft | 485 kts | 227° |
| 2026-05-06 11:09 | -2.87771 | -176.86880 | 37897 ft | 485 kts | 227° |
| 2026-05-06 11:09 | -2.93317 | -176.92412 | 37897 ft | 485 kts | 227° |
| 2026-05-06 11:10 | -2.97323 | -176.96408 | 37897 ft | 485 kts | 227° |
| 2026-05-06 11:10 | -3.02104 | -177.01174 | 37895 ft | 485 kts | 227° |
| 2026-05-06 11:11 | -3.06881 | -177.05939 | 37896 ft | 485 kts | 227° |
| 2026-05-06 11:11 | -3.11662 | -177.10710 | 37896 ft | 485 kts | 227° |
| 2026-05-06 11:12 | -3.16443 | -177.15484 | 37897 ft | 485 kts | 227° |
| 2026-05-06 11:12 | -3.21223 | -177.20253 | 37896 ft | 485 kts | 227° |
| 2026-05-06 11:13 | -3.26003 | -177.25023 | 37897 ft | 485 kts | 227° |
| 2026-05-06 11:13 | -3.30751 | -177.29765 | 37898 ft | 485 kts | 227° |
| 2026-05-06 11:14 | -3.35534 | -177.34542 | 37898 ft | 486 kts | 227° |
| 2026-05-06 11:14 | -3.40318 | -177.39319 | 37888 ft | 486 kts | 227° |
| 2026-05-06 11:15 | -3.45105 | -177.44097 | 37884 ft | 486 kts | 227° |
| 2026-05-06 11:15 | -3.49887 | -177.48873 | 37880 ft | 486 kts | 227° |
| 2026-05-06 11:16 | -3.54673 | -177.53659 | 37887 ft | 486 kts | 227° |
| 2026-05-06 11:16 | -3.59460 | -177.58444 | 37867 ft | 487 kts | 227° |
| 2026-05-06 11:17 | -3.64247 | -177.63227 | 37882 ft | 486 kts | 227° |
| 2026-05-06 11:17 | -3.69040 | -177.68017 | 37882 ft | 487 kts | 227° |
| 2026-05-06 11:18 | -3.73832 | -177.72807 | 37881 ft | 487 kts | 227° |
| 2026-05-06 11:18 | -3.78621 | -177.77597 | 37884 ft | 487 kts | 227° |
| 2026-05-06 11:19 | -3.83410 | -177.82387 | 37865 ft | 487 kts | 227° |
| 2026-05-06 11:19 | -3.88198 | -177.87175 | 37884 ft | 487 kts | 227° |
| 2026-05-06 11:20 | -3.92961 | -177.91937 | 37877 ft | 487 kts | 227° |
| 2026-05-06 11:20 | -3.97779 | -177.96760 | 37883 ft | 487 kts | 227° |
| 2026-05-06 11:21 | -4.02535 | -178.01520 | 37882 ft | 486 kts | 227° |
| 2026-05-06 11:21 | -4.07322 | -178.06312 | 37865 ft | 487 kts | 227° |
| 2026-05-06 11:22 | -4.12109 | -178.11105 | 37865 ft | 487 kts | 227° |
| 2026-05-06 11:22 | -4.16900 | -178.15899 | 37879 ft | 487 kts | 227° |
| 2026-05-06 11:23 | -4.21689 | -178.20697 | 37876 ft | 487 kts | 227° |
| 2026-05-06 11:23 | -4.26473 | -178.25489 | 37876 ft | 487 kts | 227° |
| 2026-05-06 11:24 | -4.31260 | -178.30285 | 37878 ft | 486 kts | 227° |
| 2026-05-06 11:24 | -4.36043 | -178.35077 | 37887 ft | 486 kts | 227° |
| 2026-05-06 11:25 | -4.40826 | -178.39871 | 37866 ft | 486 kts | 227° |
| 2026-05-06 11:25 | -4.45606 | -178.44662 | 37877 ft | 486 kts | 227° |
| 2026-05-06 11:26 | -4.50386 | -178.49454 | 37882 ft | 486 kts | 227° |
| 2026-05-06 11:26 | -4.55159 | -178.54241 | 37882 ft | 485 kts | 227° |
| 2026-05-06 11:27 | -4.59933 | -178.59029 | 37877 ft | 485 kts | 227° |
| 2026-05-06 11:27 | -4.64704 | -178.63813 | 37880 ft | 485 kts | 227° |
| 2026-05-06 11:28 | -4.69477 | -178.68601 | 37882 ft | 485 kts | 227° |
| 2026-05-06 11:28 | -4.74244 | -178.73388 | 37875 ft | 485 kts | 227° |
| 2026-05-06 11:29 | -4.79008 | -178.78171 | 37883 ft | 484 kts | 227° |
| 2026-05-06 11:29 | -4.83775 | -178.82958 | 37875 ft | 485 kts | 227° |
| 2026-05-06 11:30 | -4.88536 | -178.87740 | 37886 ft | 485 kts | 227° |
| 2026-05-06 11:30 | -4.93300 | -178.92525 | 37883 ft | 484 kts | 227° |
| 2026-05-06 11:31 | -4.98058 | -178.97302 | 37873 ft | 484 kts | 227° |
| 2026-05-06 11:31 | -5.02815 | -179.02082 | 37880 ft | 484 kts | 227° |
| 2026-05-06 11:32 | -5.07536 | -179.06827 | 37880 ft | 484 kts | 227° |
| 2026-05-06 11:32 | -5.12290 | -179.11608 | 37867 ft | 484 kts | 227° |
| 2026-05-06 11:33 | -5.17047 | -179.16388 | 37873 ft | 484 kts | 227° |
| 2026-05-06 11:33 | -5.21800 | -179.21172 | 37876 ft | 484 kts | 227° |
| 2026-05-06 11:34 | -5.26555 | -179.25957 | 37878 ft | 484 kts | 227° |
| 2026-05-06 11:34 | -5.31308 | -179.30740 | 37873 ft | 484 kts | 227° |
| 2026-05-06 11:35 | -5.36062 | -179.35527 | 37881 ft | 484 kts | 228° |
| 2026-05-06 11:35 | -5.40812 | -179.40307 | 37881 ft | 484 kts | 227° |
| 2026-05-06 11:36 | -5.45565 | -179.45092 | 37888 ft | 484 kts | 227° |
| 2026-05-06 11:36 | -5.50320 | -179.49880 | 37874 ft | 484 kts | 228° |
| 2026-05-06 11:37 | -5.55074 | -179.54671 | 37875 ft | 484 kts | 228° |
| 2026-05-06 11:37 | -5.59828 | -179.59462 | 37877 ft | 484 kts | 228° |
| 2026-05-06 11:38 | -5.64578 | -179.64250 | 37878 ft | 484 kts | 228° |
| 2026-05-06 11:38 | -5.69331 | -179.69042 | 37866 ft | 484 kts | 228° |
| 2026-05-06 11:39 | -5.74083 | -179.73834 | 37868 ft | 484 kts | 228° |
| 2026-05-06 11:39 | -5.78802 | -179.78596 | 37878 ft | 484 kts | 228° |
| 2026-05-06 11:40 | -5.83553 | -179.83390 | 37881 ft | 484 kts | 228° |
| 2026-05-06 11:40 | -5.88306 | -179.88184 | 37865 ft | 484 kts | 228° |
| 2026-05-06 11:41 | -5.93059 | -179.92982 | 37881 ft | 484 kts | 228° |
| 2026-05-06 11:41 | -5.97811 | -179.97777 | 37882 ft | 484 kts | 228° |
| 2026-05-06 11:42 | -6.02280 | 179.97194 | 37895 ft | 482 kts | 233° |
| 2026-05-06 11:42 | -6.06548 | 179.91992 | 37906 ft | 482 kts | 233° |
| 2026-05-06 11:43 | -6.10775 | 179.86772 | 37907 ft | 482 kts | 233° |
| 2026-05-06 11:43 | -6.15004 | 179.81548 | 37906 ft | 482 kts | 233° |
| 2026-05-06 11:44 | -6.21354 | 179.73722 | 37906 ft | 481 kts | 233° |
| 2026-05-06 11:44 | -6.25584 | 179.68510 | 37907 ft | 481 kts | 233° |
| 2026-05-06 11:45 | -6.29817 | 179.63293 | 37906 ft | 481 kts | 233° |
| 2026-05-06 11:45 | -6.34046 | 179.58080 | 37906 ft | 481 kts | 233° |
| 2026-05-06 11:46 | -6.38267 | 179.52872 | 37905 ft | 480 kts | 233° |
| 2026-05-06 11:46 | -6.42483 | 179.47671 | 37906 ft | 479 kts | 233° |
| 2026-05-06 11:47 | -6.46696 | 179.42473 | 37906 ft | 479 kts | 233° |
| 2026-05-06 11:47 | -6.50904 | 179.37278 | 37905 ft | 479 kts | 233° |
| 2026-05-06 11:48 | -6.55111 | 179.32089 | 37906 ft | 478 kts | 233° |
| 2026-05-06 11:48 | -6.59312 | 179.26900 | 37906 ft | 478 kts | 233° |
| 2026-05-06 11:49 | -6.63507 | 179.21714 | 37906 ft | 477 kts | 233° |
| 2026-05-06 11:49 | -6.67670 | 179.16566 | 37906 ft | 477 kts | 233° |
| 2026-05-06 11:50 | -6.71858 | 179.11392 | 37906 ft | 477 kts | 233° |
| 2026-05-06 11:50 | -6.76043 | 179.06219 | 37906 ft | 477 kts | 233° |
| 2026-05-06 11:51 | -6.80226 | 179.01045 | 37907 ft | 477 kts | 233° |
| 2026-05-06 11:51 | -6.84407 | 178.95871 | 37905 ft | 476 kts | 233° |
| 2026-05-06 11:52 | -6.88584 | 178.90701 | 37906 ft | 476 kts | 233° |
| 2026-05-06 11:52 | -6.92756 | 178.85537 | 37906 ft | 475 kts | 233° |
| 2026-05-06 11:53 | -6.96925 | 178.80371 | 37905 ft | 475 kts | 233° |
| 2026-05-06 11:53 | -7.01094 | 178.75205 | 37907 ft | 475 kts | 233° |
| 2026-05-06 11:54 | -7.05259 | 178.70044 | 37906 ft | 475 kts | 233° |
| 2026-05-06 11:54 | -7.09425 | 178.64881 | 37906 ft | 475 kts | 232° |
| 2026-05-06 11:55 | -7.13585 | 178.59722 | 37907 ft | 474 kts | 233° |
| 2026-05-06 11:55 | -7.17738 | 178.54571 | 37906 ft | 473 kts | 233° |
| 2026-05-06 11:56 | -7.21886 | 178.49424 | 37906 ft | 473 kts | 232° |
| 2026-05-06 11:56 | -7.25331 | 178.45148 | 37906 ft | 473 kts | 233° |
| 2026-05-06 11:57 | -7.29476 | 178.40005 | 37906 ft | 473 kts | 232° |
| 2026-05-06 11:57 | -7.33617 | 178.34859 | 37906 ft | 473 kts | 232° |
| 2026-05-06 11:58 | -7.37752 | 178.29721 | 37907 ft | 472 kts | 232° |
| 2026-05-06 11:58 | -7.41881 | 178.24593 | 37905 ft | 471 kts | 232° |
| 2026-05-06 11:59 | -7.46007 | 178.19465 | 37906 ft | 471 kts | 232° |
| 2026-05-06 11:59 | -7.50126 | 178.14341 | 37907 ft | 471 kts | 232° |
| 2026-05-06 12:00 | -7.54208 | 178.09263 | 37906 ft | 471 kts | 232° |
| 2026-05-06 12:00 | -7.58328 | 178.04136 | 37906 ft | 470 kts | 232° |
| 2026-05-06 12:01 | -7.62446 | 177.99006 | 37907 ft | 471 kts | 232° |
| 2026-05-06 12:01 | -7.66560 | 177.93881 | 37906 ft | 470 kts | 232° |
| 2026-05-06 12:02 | -7.70672 | 177.88763 | 37906 ft | 469 kts | 232° |
| 2026-05-06 12:02 | -7.74778 | 177.83648 | 37905 ft | 469 kts | 232° |
| 2026-05-06 12:03 | -7.78879 | 177.78536 | 37906 ft | 469 kts | 232° |
| 2026-05-06 12:03 | -7.82981 | 177.73421 | 37907 ft | 469 kts | 232° |
| 2026-05-06 12:04 | -7.87080 | 177.68308 | 37906 ft | 469 kts | 232° |
| 2026-05-06 12:04 | -7.91178 | 177.63193 | 37907 ft | 469 kts | 232° |
| 2026-05-06 12:05 | -7.95282 | 177.58071 | 37907 ft | 470 kts | 232° |
| 2026-05-06 12:05 | -7.99387 | 177.52944 | 37906 ft | 469 kts | 232° |
| 2026-05-06 12:06 | -8.03460 | 177.47858 | 37906 ft | 469 kts | 232° |
| 2026-05-06 12:06 | -8.07579 | 177.42709 | 37906 ft | 468 kts | 232° |
| 2026-05-06 12:07 | -8.11637 | 177.37637 | 37905 ft | 467 kts | 232° |
| 2026-05-06 12:07 | -8.15719 | 177.32534 | 37906 ft | 467 kts | 232° |
| 2026-05-06 12:08 | -8.19798 | 177.27431 | 37907 ft | 467 kts | 232° |
| 2026-05-06 12:08 | -8.23870 | 177.22335 | 37905 ft | 466 kts | 232° |
| 2026-05-06 12:09 | -8.27938 | 177.17243 | 37907 ft | 466 kts | 232° |
| 2026-05-06 12:09 | -8.32003 | 177.12153 | 37906 ft | 465 kts | 232° |
| 2026-05-06 12:10 | -8.36065 | 177.07063 | 37906 ft | 465 kts | 232° |
| 2026-05-06 12:10 | -8.40120 | 177.01981 | 37907 ft | 465 kts | 232° |
| 2026-05-06 12:11 | -8.44177 | 176.96894 | 37906 ft | 464 kts | 231° |
| 2026-05-06 12:11 | -8.48225 | 176.91817 | 37907 ft | 464 kts | 231° |
| 2026-05-06 12:12 | -8.52241 | 176.86779 | 37906 ft | 463 kts | 231° |
| 2026-05-06 12:12 | -8.56283 | 176.81706 | 37907 ft | 463 kts | 231° |
| 2026-05-06 12:13 | -8.60324 | 176.76635 | 37907 ft | 463 kts | 231° |
| 2026-05-06 12:13 | -8.64370 | 176.71555 | 37906 ft | 464 kts | 231° |
| 2026-05-06 12:14 | -8.68406 | 176.66477 | 37907 ft | 463 kts | 231° |
| 2026-05-06 12:14 | -8.72439 | 176.61402 | 37907 ft | 463 kts | 231° |
| 2026-05-06 12:15 | -8.76475 | 176.56329 | 37907 ft | 463 kts | 231° |
| 2026-05-06 12:15 | -8.80513 | 176.51253 | 37906 ft | 463 kts | 231° |
| 2026-05-06 12:16 | -8.84542 | 176.46185 | 37906 ft | 462 kts | 231° |
| 2026-05-06 12:16 | -8.88575 | 176.41109 | 37899 ft | 463 kts | 231° |
| 2026-05-06 12:17 | -8.92616 | 176.36020 | 37896 ft | 465 kts | 231° |
| 2026-05-06 12:17 | -8.96663 | 176.30920 | 37894 ft | 465 kts | 231° |
| 2026-05-06 12:18 | -9.00713 | 176.25815 | 37900 ft | 465 kts | 231° |
| 2026-05-06 12:18 | -9.04765 | 176.20705 | 37894 ft | 465 kts | 231° |
| 2026-05-06 12:19 | -9.08815 | 176.15598 | 37901 ft | 465 kts | 231° |
| 2026-05-06 12:19 | -9.12833 | 176.10527 | 37893 ft | 465 kts | 231° |
| 2026-05-06 12:20 | -9.16876 | 176.05425 | 37894 ft | 465 kts | 231° |
| 2026-05-06 12:20 | -9.20916 | 176.00321 | 37896 ft | 465 kts | 231° |
| 2026-05-06 12:21 | -9.24956 | 175.95217 | 37898 ft | 464 kts | 231° |
| 2026-05-06 12:21 | -9.28995 | 175.90112 | 37897 ft | 465 kts | 231° |
| 2026-05-06 12:22 | -9.33041 | 175.84998 | 37894 ft | 465 kts | 231° |
| 2026-05-06 12:22 | -9.37087 | 175.79878 | 37897 ft | 466 kts | 231° |
| 2026-05-06 12:23 | -9.41129 | 175.74763 | 37896 ft | 465 kts | 231° |
| 2026-05-06 12:23 | -9.45173 | 175.69643 | 37897 ft | 465 kts | 231° |
| 2026-05-06 12:24 | -9.49217 | 175.64520 | 37899 ft | 465 kts | 231° |
| 2026-05-06 12:24 | -9.53257 | 175.59396 | 37899 ft | 465 kts | 231° |
| 2026-05-06 12:25 | -9.57299 | 175.54275 | 37899 ft | 465 kts | 231° |
| 2026-05-06 12:25 | -9.61337 | 175.49151 | 37899 ft | 465 kts | 231° |
| 2026-05-06 12:26 | -9.65346 | 175.44064 | 37906 ft | 465 kts | 231° |
| 2026-05-06 12:26 | -9.69378 | 175.38949 | 37906 ft | 464 kts | 231° |
| 2026-05-06 12:27 | -9.73410 | 175.33832 | 37907 ft | 464 kts | 231° |
| 2026-05-06 12:27 | -9.77438 | 175.28715 | 37907 ft | 465 kts | 231° |
| 2026-05-06 12:28 | -9.81468 | 175.23595 | 37907 ft | 464 kts | 231° |
| 2026-05-06 12:28 | -9.85496 | 175.18474 | 37906 ft | 464 kts | 231° |
| 2026-05-06 12:29 | -9.89520 | 175.13354 | 37907 ft | 464 kts | 231° |
| 2026-05-06 12:29 | -9.93547 | 175.08229 | 37906 ft | 464 kts | 231° |
| 2026-05-06 12:30 | -9.97573 | 175.03106 | 37906 ft | 464 kts | 231° |
| 2026-05-06 12:30 | -10.02058 | 174.98424 | 38164 ft | 463 kts | 221° |
| 2026-05-06 12:31 | -10.04523 | 174.96330 | 38383 ft | 461 kts | 220° |
| 2026-05-06 12:31 | -10.07014 | 174.94281 | 38557 ft | 461 kts | 219° |
| 2026-05-06 12:31 | -10.09521 | 174.92253 | 38706 ft | 461 kts | 219° |
| 2026-05-06 12:31 | -10.12035 | 174.90232 | 38837 ft | 461 kts | 219° |
| 2026-05-06 12:32 | -10.14547 | 174.88212 | 38997 ft | 460 kts | 219° |
| 2026-05-06 12:32 | -10.17056 | 174.86193 | 39159 ft | 459 kts | 219° |
| 2026-05-06 12:32 | -10.22061 | 174.82150 | 39364 ft | 460 kts | 219° |
| 2026-05-06 12:33 | -10.24563 | 174.80124 | 39476 ft | 460 kts | 220° |
| 2026-05-06 12:33 | -10.27062 | 174.78097 | 39583 ft | 460 kts | 220° |
| 2026-05-06 12:33 | -10.29530 | 174.76095 | 39699 ft | 460 kts | 220° |
| 2026-05-06 12:33 | -10.32034 | 174.74067 | 39832 ft | 461 kts | 220° |
| 2026-05-06 12:34 | -10.37046 | 174.69998 | 39907 ft | 462 kts | 220° |
| 2026-05-06 12:34 | -10.42070 | 174.65919 | 39906 ft | 462 kts | 220° |
| 2026-05-06 12:35 | -10.47091 | 174.61841 | 39908 ft | 462 kts | 220° |
| 2026-05-06 12:35 | -10.52113 | 174.57763 | 39909 ft | 462 kts | 220° |
| 2026-05-06 12:36 | -10.57128 | 174.53687 | 39908 ft | 461 kts | 220° |
| 2026-05-06 12:36 | -10.62139 | 174.49613 | 39906 ft | 461 kts | 220° |
| 2026-05-06 12:37 | -10.67142 | 174.45544 | 39906 ft | 461 kts | 220° |
| 2026-05-06 12:37 | -10.72146 | 174.41474 | 39906 ft | 461 kts | 220° |
| 2026-05-06 12:38 | -10.77149 | 174.37400 | 39906 ft | 461 kts | 220° |
| 2026-05-06 12:38 | -10.82156 | 174.33326 | 39906 ft | 461 kts | 220° |
| 2026-05-06 12:39 | -10.87160 | 174.29248 | 39907 ft | 460 kts | 220° |
| 2026-05-06 12:39 | -10.92121 | 174.25201 | 39906 ft | 460 kts | 220° |
| 2026-05-06 12:40 | -10.97114 | 174.21129 | 39906 ft | 460 kts | 220° |
| 2026-05-06 12:40 | -11.02105 | 174.17057 | 39907 ft | 460 kts | 220° |
| 2026-05-06 12:41 | -11.07100 | 174.12981 | 39906 ft | 460 kts | 220° |
| 2026-05-06 12:41 | -11.12089 | 174.08906 | 39906 ft | 459 kts | 220° |
| 2026-05-06 12:42 | -11.17072 | 174.04834 | 39906 ft | 459 kts | 220° |
| 2026-05-06 12:42 | -11.22055 | 174.00762 | 39906 ft | 459 kts | 220° |
| 2026-05-06 12:43 | -11.27035 | 173.96690 | 39906 ft | 460 kts | 220° |
| 2026-05-06 12:43 | -11.32024 | 173.92606 | 39907 ft | 460 kts | 220° |
| 2026-05-06 12:44 | -11.37012 | 173.88524 | 39908 ft | 459 kts | 220° |
| 2026-05-06 12:44 | -11.41991 | 173.84449 | 39906 ft | 459 kts | 220° |
| 2026-05-06 12:45 | -11.46967 | 173.80371 | 39906 ft | 459 kts | 220° |
| 2026-05-06 12:46 | -11.54420 | 173.74263 | 39906 ft | 458 kts | 220° |
| 2026-05-06 12:46 | -11.58552 | 173.70875 | 39906 ft | 458 kts | 220° |
| 2026-05-06 12:47 | -11.63520 | 173.66799 | 39916 ft | 458 kts | 220° |
| 2026-05-06 12:47 | -11.68485 | 173.62724 | 39916 ft | 458 kts | 220° |
| 2026-05-06 12:48 | -11.73456 | 173.58642 | 39916 ft | 459 kts | 220° |
| 2026-05-06 12:48 | -11.78418 | 173.54559 | 39918 ft | 458 kts | 220° |
| 2026-05-06 12:49 | -11.83386 | 173.50477 | 39915 ft | 458 kts | 220° |
| 2026-05-06 12:49 | -11.88351 | 173.46396 | 39918 ft | 458 kts | 220° |
| 2026-05-06 12:50 | -11.93316 | 173.42312 | 39915 ft | 458 kts | 220° |
| 2026-05-06 12:50 | -11.98279 | 173.38227 | 39913 ft | 458 kts | 220° |
| 2026-05-06 12:51 | -12.03243 | 173.34139 | 39920 ft | 458 kts | 220° |
| 2026-05-06 12:51 | -12.08198 | 173.30052 | 39919 ft | 458 kts | 220° |
| 2026-05-06 12:52 | -12.13151 | 173.25967 | 39918 ft | 458 kts | 220° |
| 2026-05-06 12:52 | -12.18126 | 173.21865 | 39917 ft | 459 kts | 220° |
| 2026-05-06 12:53 | -12.23092 | 173.17769 | 39916 ft | 459 kts | 220° |
| 2026-05-06 12:53 | -12.28020 | 173.13701 | 39913 ft | 458 kts | 220° |
| 2026-05-06 12:54 | -12.32976 | 173.09606 | 39919 ft | 458 kts | 220° |
| 2026-05-06 12:54 | -12.37932 | 173.05509 | 39916 ft | 458 kts | 220° |
| 2026-05-06 12:55 | -12.42885 | 173.01413 | 39917 ft | 457 kts | 220° |
| 2026-05-06 12:55 | -12.47837 | 172.97318 | 39914 ft | 458 kts | 220° |
| 2026-05-06 12:56 | -12.52791 | 172.93217 | 39917 ft | 458 kts | 220° |
| 2026-05-06 12:56 | -12.57743 | 172.89116 | 39925 ft | 458 kts | 220° |
| 2026-05-06 12:57 | -12.62695 | 172.85013 | 39924 ft | 458 kts | 220° |
| 2026-05-06 12:57 | -12.67645 | 172.80907 | 39923 ft | 458 kts | 221° |
| 2026-05-06 12:58 | -12.72591 | 172.76803 | 39925 ft | 458 kts | 220° |
| 2026-05-06 12:58 | -12.77542 | 172.72695 | 39924 ft | 458 kts | 220° |
| 2026-05-06 12:59 | -12.82483 | 172.68595 | 39925 ft | 457 kts | 220° |
| 2026-05-06 12:59 | -12.87419 | 172.64493 | 39926 ft | 457 kts | 221° |
| 2026-05-06 13:00 | -12.92352 | 172.60390 | 39924 ft | 457 kts | 221° |
| 2026-05-06 13:00 | -12.97256 | 172.56312 | 39924 ft | 457 kts | 220° |
| 2026-05-06 13:01 | -13.02185 | 172.52213 | 39924 ft | 456 kts | 221° |
| 2026-05-06 13:01 | -13.07108 | 172.48115 | 39926 ft | 456 kts | 220° |
| 2026-05-06 13:02 | -13.12018 | 172.44025 | 39927 ft | 456 kts | 220° |
| 2026-05-06 13:02 | -13.16944 | 172.39921 | 39924 ft | 455 kts | 220° |
| 2026-05-06 13:03 | -13.21858 | 172.35823 | 39923 ft | 455 kts | 220° |
| 2026-05-06 13:03 | -13.26765 | 172.31730 | 39925 ft | 454 kts | 220° |
| 2026-05-06 13:04 | -13.31661 | 172.27644 | 39923 ft | 454 kts | 220° |
| 2026-05-06 13:04 | -13.36554 | 172.23557 | 39924 ft | 453 kts | 220° |
| 2026-05-06 13:05 | -13.41442 | 172.19473 | 39923 ft | 453 kts | 220° |
| 2026-05-06 13:05 | -13.46320 | 172.15394 | 39926 ft | 451 kts | 220° |
| 2026-05-06 13:06 | -13.51192 | 172.11318 | 39925 ft | 452 kts | 220° |
| 2026-05-06 13:06 | -13.56061 | 172.07244 | 39924 ft | 451 kts | 220° |
| 2026-05-06 13:07 | -13.60921 | 172.03174 | 39925 ft | 450 kts | 220° |
| 2026-05-06 13:07 | -13.65743 | 171.99133 | 39926 ft | 450 kts | 220° |
| 2026-05-06 13:08 | -13.70626 | 171.95042 | 39926 ft | 450 kts | 220° |
| 2026-05-06 13:08 | -13.75439 | 171.91003 | 39924 ft | 449 kts | 220° |
| 2026-05-06 13:09 | -13.80279 | 171.86940 | 39924 ft | 449 kts | 220° |
| 2026-05-06 13:09 | -13.85119 | 171.82877 | 39923 ft | 449 kts | 220° |
| 2026-05-06 13:10 | -13.89957 | 171.78811 | 39934 ft | 449 kts | 220° |
| 2026-05-06 13:10 | -13.94792 | 171.74747 | 39934 ft | 449 kts | 220° |
| 2026-05-06 13:11 | -13.99633 | 171.70676 | 39934 ft | 449 kts | 220° |
| 2026-05-06 13:11 | -14.04473 | 171.66602 | 39935 ft | 449 kts | 220° |
| 2026-05-06 13:12 | -14.09306 | 171.62533 | 39934 ft | 449 kts | 220° |
| 2026-05-06 13:12 | -14.14140 | 171.58458 | 39935 ft | 449 kts | 220° |
| 2026-05-06 13:13 | -14.18973 | 171.54382 | 39935 ft | 449 kts | 220° |
| 2026-05-06 13:13 | -14.23806 | 171.50305 | 39935 ft | 449 kts | 221° |
| 2026-05-06 13:14 | -14.28637 | 171.46229 | 39933 ft | 449 kts | 221° |
| 2026-05-06 13:14 | -14.33468 | 171.42151 | 39934 ft | 448 kts | 221° |
| 2026-05-06 13:15 | -14.38263 | 171.38098 | 39933 ft | 448 kts | 221° |
| 2026-05-06 13:15 | -14.43087 | 171.34019 | 39935 ft | 448 kts | 221° |
| 2026-05-06 13:16 | -14.47898 | 171.29949 | 39933 ft | 447 kts | 221° |
| 2026-05-06 13:16 | -14.52709 | 171.25876 | 39934 ft | 447 kts | 221° |
| 2026-05-06 13:17 | -14.57518 | 171.21805 | 39934 ft | 447 kts | 221° |
| 2026-05-06 13:17 | -14.62320 | 171.17732 | 39933 ft | 447 kts | 221° |
| 2026-05-06 13:18 | -14.67119 | 171.13662 | 39935 ft | 447 kts | 221° |
| 2026-05-06 13:18 | -14.71922 | 171.09590 | 39933 ft | 447 kts | 221° |
| 2026-05-06 13:19 | -14.76724 | 171.05514 | 39935 ft | 447 kts | 221° |
| 2026-05-06 13:19 | -14.81525 | 171.01435 | 39935 ft | 447 kts | 221° |
| 2026-05-06 13:20 | -14.86319 | 170.97361 | 39933 ft | 446 kts | 221° |
| 2026-05-06 13:20 | -14.91106 | 170.93289 | 39933 ft | 445 kts | 221° |
| 2026-05-06 13:21 | -14.95862 | 170.89241 | 39935 ft | 445 kts | 221° |
| 2026-05-06 13:21 | -15.00633 | 170.85180 | 39935 ft | 444 kts | 221° |
| 2026-05-06 13:22 | -15.05413 | 170.81106 | 39934 ft | 445 kts | 221° |
| 2026-05-06 13:22 | -15.10182 | 170.77041 | 39934 ft | 444 kts | 221° |
| 2026-05-06 13:23 | -15.14942 | 170.72979 | 39954 ft | 443 kts | 221° |
| 2026-05-06 13:23 | -15.19704 | 170.68917 | 39952 ft | 443 kts | 221° |
| 2026-05-06 13:24 | -15.24457 | 170.64859 | 39954 ft | 443 kts | 221° |
| 2026-05-06 13:24 | -15.29205 | 170.60803 | 39953 ft | 443 kts | 221° |
| 2026-05-06 13:25 | -15.33951 | 170.56745 | 39953 ft | 442 kts | 221° |
| 2026-05-06 13:25 | -15.38697 | 170.52683 | 39950 ft | 442 kts | 221° |
| 2026-05-06 13:26 | -15.43433 | 170.48629 | 39955 ft | 441 kts | 221° |
| 2026-05-06 13:26 | -15.48164 | 170.44573 | 39952 ft | 441 kts | 221° |
| 2026-05-06 13:27 | -15.52887 | 170.40528 | 39950 ft | 440 kts | 221° |
| 2026-05-06 13:27 | -15.57601 | 170.36486 | 39953 ft | 439 kts | 221° |
| 2026-05-06 13:28 | -15.62310 | 170.32445 | 39949 ft | 439 kts | 221° |
| 2026-05-06 13:28 | -15.66982 | 170.28433 | 39950 ft | 439 kts | 221° |
| 2026-05-06 13:29 | -15.71677 | 170.24400 | 39955 ft | 438 kts | 221° |
| 2026-05-06 13:29 | -15.76364 | 170.20370 | 39955 ft | 437 kts | 221° |
| 2026-05-06 13:30 | -15.81051 | 170.16337 | 39950 ft | 437 kts | 221° |
| 2026-05-06 13:30 | -15.85738 | 170.12302 | 39950 ft | 437 kts | 221° |
| 2026-05-06 13:31 | -15.90422 | 170.08265 | 39954 ft | 438 kts | 221° |
| 2026-05-06 13:31 | -15.95109 | 170.04229 | 39954 ft | 437 kts | 221° |
| 2026-05-06 13:32 | -15.99794 | 170.00189 | 39954 ft | 437 kts | 221° |
| 2026-05-06 13:32 | -16.04331 | 169.95991 | 39951 ft | 436 kts | 225° |
| 2026-05-06 13:33 | -16.08679 | 169.91582 | 39952 ft | 437 kts | 226° |
| 2026-05-06 13:33 | -16.13035 | 169.87183 | 39955 ft | 436 kts | 225° |
| 2026-05-06 13:34 | -16.17425 | 169.82819 | 39954 ft | 437 kts | 225° |
| 2026-05-06 13:34 | -16.21830 | 169.78469 | 39952 ft | 437 kts | 225° |
| 2026-05-06 13:35 | -16.26246 | 169.74109 | 39957 ft | 438 kts | 225° |
| 2026-05-06 13:35 | -16.29912 | 169.70487 | 39962 ft | 437 kts | 225° |
| 2026-05-06 13:36 | -16.34314 | 169.66129 | 39965 ft | 437 kts | 225° |
| 2026-05-06 13:36 | -16.39380 | 169.61111 | 39961 ft | 437 kts | 225° |
| 2026-05-06 13:37 | -16.43781 | 169.56752 | 39959 ft | 437 kts | 225° |
| 2026-05-06 13:37 | -16.48181 | 169.52390 | 39963 ft | 437 kts | 225° |
| 2026-05-06 13:38 | -16.51845 | 169.48756 | 39963 ft | 436 kts | 225° |
| 2026-05-06 13:38 | -16.56259 | 169.44370 | 39961 ft | 436 kts | 225° |
| 2026-05-06 13:39 | -16.60619 | 169.40040 | 39960 ft | 436 kts | 225° |
| 2026-05-06 13:39 | -16.65008 | 169.35678 | 39960 ft | 436 kts | 225° |
| 2026-05-06 13:40 | -16.69394 | 169.31316 | 39960 ft | 436 kts | 225° |
| 2026-05-06 13:40 | -16.73786 | 169.26946 | 39961 ft | 436 kts | 225° |
| 2026-05-06 13:41 | -16.78174 | 169.22575 | 39959 ft | 436 kts | 225° |
| 2026-05-06 13:41 | -16.82561 | 169.18198 | 39961 ft | 436 kts | 225° |
| 2026-05-06 13:42 | -16.86944 | 169.13828 | 39965 ft | 436 kts | 225° |
| 2026-05-06 13:42 | -16.91330 | 169.09452 | 39960 ft | 436 kts | 225° |
| 2026-05-06 13:43 | -16.95708 | 169.05080 | 39963 ft | 436 kts | 225° |
| 2026-05-06 13:43 | -17.00085 | 169.00705 | 39961 ft | 435 kts | 225° |
| 2026-05-06 13:44 | -17.04458 | 168.96331 | 39963 ft | 435 kts | 225° |
| 2026-05-06 13:44 | -17.08820 | 168.91967 | 39963 ft | 435 kts | 225° |
| 2026-05-06 13:45 | -17.13200 | 168.87581 | 39964 ft | 435 kts | 226° |
| 2026-05-06 13:45 | -17.19752 | 168.81016 | 39962 ft | 435 kts | 226° |
| 2026-05-06 13:46 | -17.24087 | 168.76664 | 39963 ft | 434 kts | 226° |
| 2026-05-06 13:46 | -17.28441 | 168.72289 | 39963 ft | 434 kts | 226° |
| 2026-05-06 13:47 | -17.32795 | 168.67916 | 39960 ft | 434 kts | 226° |
| 2026-05-06 13:47 | -17.37150 | 168.63538 | 39961 ft | 434 kts | 226° |
| 2026-05-06 13:48 | -17.41505 | 168.59159 | 39962 ft | 434 kts | 226° |
| 2026-05-06 13:48 | -17.45849 | 168.54783 | 39960 ft | 433 kts | 226° |
| 2026-05-06 13:49 | -17.50196 | 168.50407 | 39962 ft | 433 kts | 226° |
| 2026-05-06 13:49 | -17.54537 | 168.46032 | 39961 ft | 432 kts | 226° |
| 2026-05-06 13:50 | -17.58869 | 168.41661 | 39964 ft | 432 kts | 226° |
| 2026-05-06 13:50 | -17.63199 | 168.37289 | 39962 ft | 432 kts | 226° |
| 2026-05-06 13:51 | -17.67521 | 168.32920 | 39962 ft | 432 kts | 226° |
| 2026-05-06 13:51 | -17.71845 | 168.28550 | 39960 ft | 432 kts | 226° |
| 2026-05-06 13:52 | -17.76165 | 168.24181 | 39961 ft | 431 kts | 226° |
| 2026-05-06 13:52 | -17.80483 | 168.19808 | 39963 ft | 431 kts | 226° |
| 2026-05-06 13:53 | -17.84800 | 168.15434 | 39960 ft | 431 kts | 226° |
| 2026-05-06 13:53 | -17.89085 | 168.11090 | 39963 ft | 431 kts | 226° |
| 2026-05-06 13:54 | -17.93400 | 168.06713 | 39965 ft | 431 kts | 226° |
| 2026-05-06 13:54 | -17.97715 | 168.02333 | 39975 ft | 431 kts | 226° |
| 2026-05-06 13:55 | -18.02040 | 167.97967 | 39969 ft | 432 kts | 225° |
| 2026-05-06 13:55 | -18.06444 | 167.93675 | 39973 ft | 432 kts | 225° |
| 2026-05-06 13:56 | -18.10861 | 167.89404 | 39979 ft | 432 kts | 225° |
| 2026-05-06 13:56 | -18.15268 | 167.85117 | 39980 ft | 431 kts | 225° |
| 2026-05-06 13:57 | -18.19668 | 167.80823 | 39980 ft | 431 kts | 225° |
| 2026-05-06 13:57 | -18.24066 | 167.76522 | 39967 ft | 432 kts | 225° |
| 2026-05-06 13:58 | -18.28462 | 167.72220 | 39964 ft | 432 kts | 225° |
| 2026-05-06 13:58 | -18.32856 | 167.67916 | 39979 ft | 431 kts | 225° |
| 2026-05-06 13:59 | -18.37248 | 167.63612 | 39983 ft | 431 kts | 225° |
| 2026-05-06 13:59 | -18.41637 | 167.59308 | 39978 ft | 431 kts | 225° |
| 2026-05-06 14:00 | -18.46017 | 167.55009 | 39964 ft | 430 kts | 225° |
| 2026-05-06 14:00 | -18.50389 | 167.50714 | 39965 ft | 429 kts | 225° |
| 2026-05-06 14:01 | -18.54756 | 167.46423 | 39967 ft | 429 kts | 225° |
| 2026-05-06 14:01 | -18.59125 | 167.42129 | 39975 ft | 429 kts | 225° |
| 2026-05-06 14:02 | -18.63489 | 167.37834 | 39965 ft | 429 kts | 225° |
| 2026-05-06 14:02 | -18.67824 | 167.33563 | 39969 ft | 429 kts | 225° |
| 2026-05-06 14:03 | -18.72183 | 167.29267 | 39965 ft | 429 kts | 225° |
| 2026-05-06 14:03 | -18.76545 | 167.24964 | 39982 ft | 429 kts | 225° |
| 2026-05-06 14:04 | -18.80902 | 167.20664 | 39978 ft | 428 kts | 225° |
| 2026-05-06 14:04 | -18.85249 | 167.16369 | 39978 ft | 428 kts | 225° |
| 2026-05-06 14:05 | -18.89594 | 167.12074 | 39974 ft | 428 kts | 225° |
| 2026-05-06 14:05 | -18.93937 | 167.07776 | 39981 ft | 428 kts | 225° |
| 2026-05-06 14:06 | -18.98280 | 167.03475 | 39981 ft | 428 kts | 225° |
| 2026-05-06 14:06 | -19.02622 | 166.99175 | 39981 ft | 428 kts | 225° |
| 2026-05-06 14:07 | -19.06964 | 166.94870 | 39984 ft | 428 kts | 226° |
| 2026-05-06 14:07 | -19.11304 | 166.90563 | 39987 ft | 428 kts | 226° |
| 2026-05-06 14:08 | -19.15644 | 166.86256 | 39988 ft | 428 kts | 226° |
| 2026-05-06 14:08 | -19.19983 | 166.81939 | 39988 ft | 428 kts | 226° |
| 2026-05-06 14:09 | -19.24320 | 166.77625 | 39990 ft | 428 kts | 226° |
| 2026-05-06 14:09 | -19.28651 | 166.73314 | 39991 ft | 427 kts | 226° |
| 2026-05-06 14:10 | -19.32978 | 166.69005 | 39986 ft | 427 kts | 226° |
| 2026-05-06 14:10 | -19.37304 | 166.64694 | 39992 ft | 427 kts | 226° |
| 2026-05-06 14:11 | -19.41627 | 166.60380 | 39990 ft | 427 kts | 226° |
| 2026-05-06 14:11 | -19.45950 | 166.56066 | 39988 ft | 427 kts | 226° |
| 2026-05-06 14:12 | -19.50271 | 166.51749 | 39998 ft | 427 kts | 226° |
| 2026-05-06 14:12 | -19.54593 | 166.47424 | 39999 ft | 427 kts | 226° |
| 2026-05-06 14:13 | -19.58915 | 166.43102 | 40001 ft | 427 kts | 226° |
| 2026-05-06 14:13 | -19.63233 | 166.38778 | 40000 ft | 427 kts | 226° |
| 2026-05-06 14:14 | -19.67523 | 166.34480 | 40000 ft | 427 kts | 226° |
| 2026-05-06 14:14 | -19.71833 | 166.30158 | 39999 ft | 426 kts | 226° |
| 2026-05-06 14:15 | -19.76138 | 166.25835 | 39999 ft | 426 kts | 226° |
| 2026-05-06 14:15 | -19.80443 | 166.21510 | 39998 ft | 426 kts | 226° |
| 2026-05-06 14:16 | -19.84744 | 166.17185 | 39997 ft | 426 kts | 226° |
| 2026-05-06 14:16 | -19.89046 | 166.12859 | 39998 ft | 426 kts | 226° |
| 2026-05-06 14:17 | -19.93347 | 166.08529 | 40001 ft | 426 kts | 226° |
| 2026-05-06 14:17 | -19.97640 | 166.04201 | 39996 ft | 425 kts | 226° |
| 2026-05-06 14:18 | -20.01939 | 165.99862 | 40008 ft | 426 kts | 226° |
| 2026-05-06 14:18 | -20.06235 | 165.95527 | 40007 ft | 426 kts | 226° |
| 2026-05-06 14:19 | -20.10530 | 165.91190 | 40009 ft | 426 kts | 226° |
| 2026-05-06 14:19 | -20.14824 | 165.86850 | 40009 ft | 426 kts | 226° |
| 2026-05-06 14:20 | -20.19114 | 165.82509 | 40008 ft | 426 kts | 226° |
| 2026-05-06 14:20 | -20.23405 | 165.78164 | 40013 ft | 426 kts | 226° |
| 2026-05-06 14:21 | -20.27695 | 165.73817 | 40017 ft | 426 kts | 226° |
| 2026-05-06 14:21 | -20.31952 | 165.69500 | 40016 ft | 425 kts | 226° |
| 2026-05-06 14:22 | -20.36231 | 165.65157 | 40018 ft | 425 kts | 226° |
| 2026-05-06 14:22 | -20.40505 | 165.60815 | 40018 ft | 425 kts | 226° |
| 2026-05-06 14:23 | -20.44778 | 165.56471 | 40017 ft | 424 kts | 226° |
| 2026-05-06 14:23 | -20.49053 | 165.52122 | 40018 ft | 425 kts | 226° |
| 2026-05-06 14:24 | -20.53316 | 165.47781 | 40017 ft | 424 kts | 226° |
| 2026-05-06 14:24 | -20.57585 | 165.43431 | 40017 ft | 424 kts | 226° |
| 2026-05-06 14:25 | -20.61128 | 165.39817 | 40018 ft | 424 kts | 226° |
| 2026-05-06 14:25 | -20.66111 | 165.34731 | 40018 ft | 424 kts | 227° |
| 2026-05-06 14:26 | -20.69652 | 165.31114 | 40018 ft | 424 kts | 227° |
| 2026-05-06 14:26 | -20.73908 | 165.26763 | 40017 ft | 423 kts | 227° |
| 2026-05-06 14:27 | -20.78158 | 165.22415 | 40017 ft | 423 kts | 227° |
| 2026-05-06 14:27 | -20.82407 | 165.18064 | 40015 ft | 423 kts | 227° |
| 2026-05-06 14:28 | -20.86658 | 165.13708 | 40019 ft | 423 kts | 227° |
| 2026-05-06 14:28 | -20.90907 | 165.09351 | 40018 ft | 423 kts | 227° |
| 2026-05-06 14:29 | -20.95146 | 165.04999 | 40018 ft | 422 kts | 227° |
| 2026-05-06 14:29 | -20.99384 | 165.00645 | 40019 ft | 422 kts | 227° |
| 2026-05-06 14:30 | -21.03669 | 164.96332 | 40019 ft | 423 kts | 226° |
| 2026-05-06 14:30 | -21.08026 | 164.92090 | 40017 ft | 423 kts | 226° |
| 2026-05-06 14:31 | -21.12379 | 164.87851 | 40016 ft | 422 kts | 226° |
| 2026-05-06 14:31 | -21.16711 | 164.83605 | 40017 ft | 422 kts | 226° |
| 2026-05-06 14:32 | -21.21038 | 164.79348 | 40018 ft | 422 kts | 226° |
| 2026-05-06 14:32 | -21.25335 | 164.75114 | 40017 ft | 422 kts | 226° |
| 2026-05-06 14:33 | -21.29659 | 164.70851 | 40018 ft | 422 kts | 226° |
| 2026-05-06 14:33 | -21.33976 | 164.66594 | 40017 ft | 421 kts | 226° |
| 2026-05-06 14:34 | -21.38290 | 164.62335 | 40017 ft | 421 kts | 226° |
| 2026-05-06 14:34 | -21.42604 | 164.58073 | 40017 ft | 422 kts | 226° |
| 2026-05-06 14:35 | -21.46917 | 164.53808 | 40017 ft | 421 kts | 226° |
| 2026-05-06 14:35 | -21.51222 | 164.49548 | 40018 ft | 421 kts | 226° |
| 2026-05-06 14:36 | -21.55523 | 164.45287 | 40017 ft | 421 kts | 226° |
| 2026-05-06 14:36 | -21.59824 | 164.41023 | 40017 ft | 421 kts | 226° |
| 2026-05-06 14:37 | -21.64123 | 164.36759 | 40017 ft | 420 kts | 226° |
| 2026-05-06 14:37 | -21.68409 | 164.32502 | 40018 ft | 420 kts | 227° |
| 2026-05-06 14:38 | -21.72701 | 164.28237 | 40017 ft | 420 kts | 227° |
| 2026-05-06 14:38 | -21.76992 | 164.23967 | 40017 ft | 420 kts | 227° |
| 2026-05-06 14:39 | -21.81279 | 164.19700 | 40018 ft | 419 kts | 227° |
| 2026-05-06 14:39 | -21.85559 | 164.15435 | 40017 ft | 419 kts | 227° |
| 2026-05-06 14:40 | -21.89835 | 164.11171 | 40017 ft | 419 kts | 227° |
| 2026-05-06 14:40 | -21.94112 | 164.06902 | 40018 ft | 419 kts | 227° |
| 2026-05-06 14:41 | -21.98357 | 164.02662 | 40017 ft | 419 kts | 227° |
| 2026-05-06 14:41 | -22.02628 | 163.98391 | 40017 ft | 419 kts | 227° |
| 2026-05-06 14:42 | -22.06898 | 163.94118 | 40023 ft | 419 kts | 227° |
| 2026-05-06 14:42 | -22.11170 | 163.89839 | 40026 ft | 419 kts | 227° |
| 2026-05-06 14:43 | -22.15437 | 163.85562 | 40025 ft | 419 kts | 227° |
| 2026-05-06 14:43 | -22.19704 | 163.81281 | 40026 ft | 419 kts | 227° |
| 2026-05-06 14:44 | -22.23967 | 163.77000 | 40026 ft | 419 kts | 227° |
| 2026-05-06 14:45 | -22.30365 | 163.70568 | 40026 ft | 419 kts | 227° |
| 2026-05-06 14:45 | -22.34625 | 163.66281 | 40028 ft | 419 kts | 227° |
| 2026-05-06 14:46 | -22.38882 | 163.61993 | 40026 ft | 419 kts | 227° |
| 2026-05-06 14:46 | -22.43151 | 163.57690 | 40029 ft | 419 kts | 227° |
| 2026-05-06 14:47 | -22.47412 | 163.53390 | 40025 ft | 419 kts | 227° |
| 2026-05-06 14:47 | -22.51664 | 163.49096 | 40032 ft | 418 kts | 227° |
| 2026-05-06 14:48 | -22.55913 | 163.44801 | 40035 ft | 418 kts | 227° |
| 2026-05-06 14:48 | -22.60160 | 163.40504 | 40036 ft | 418 kts | 227° |
| 2026-05-06 14:49 | -22.64412 | 163.36198 | 40037 ft | 418 kts | 227° |
| 2026-05-06 14:49 | -22.68659 | 163.31894 | 40038 ft | 418 kts | 227° |
| 2026-05-06 14:50 | -22.72909 | 163.27583 | 40040 ft | 418 kts | 227° |
| 2026-05-06 14:50 | -22.77157 | 163.23270 | 40033 ft | 419 kts | 227° |
| 2026-05-06 14:51 | -22.81407 | 163.18951 | 40032 ft | 419 kts | 227° |
| 2026-05-06 14:51 | -22.85628 | 163.14657 | 40036 ft | 419 kts | 227° |
| 2026-05-06 14:52 | -22.89875 | 163.10334 | 40035 ft | 418 kts | 227° |
| 2026-05-06 14:52 | -22.94113 | 163.06016 | 40039 ft | 418 kts | 228° |
| 2026-05-06 14:53 | -22.98356 | 163.01689 | 40041 ft | 418 kts | 228° |
| 2026-05-06 14:53 | -23.02625 | 162.97386 | 40037 ft | 419 kts | 227° |
| 2026-05-06 14:54 | -23.06985 | 162.93184 | 40034 ft | 419 kts | 226° |
| 2026-05-06 14:54 | -23.11362 | 162.88987 | 40033 ft | 420 kts | 226° |
| 2026-05-06 14:55 | -23.15726 | 162.84771 | 40037 ft | 420 kts | 226° |
| 2026-05-06 14:55 | -23.20082 | 162.80543 | 40041 ft | 420 kts | 227° |
| 2026-05-06 14:56 | -23.24432 | 162.76313 | 40038 ft | 420 kts | 227° |
| 2026-05-06 14:56 | -23.28784 | 162.72078 | 40037 ft | 420 kts | 227° |
| 2026-05-06 14:57 | -23.33124 | 162.67852 | 40042 ft | 419 kts | 227° |